<?xml version="1.0" encoding="UTF-8" standalone="no" ?>
<gpx xmlns="http://www.topografix.com/GPX/1/1" xmlns:xsi="http://www.w3.org/2001/XMLSchema-instance" xsi:schemaLocation="http://www.topografix.com/GPX/1/1 http://www.topografix.com/GPX/1/1/gpx.xsd" version="1.1" creator="VisuGPX - https://www.visugpx.com">
  <metadata>
    <name>Col de Leschaux</name>
    <desc><![CDATA[Une belle ballade après le bureau.]]></desc>
  </metadata>
  <trk>
    <name><![CDATA[ONmove 220 - 11/04/2017]]></name>
    <trkseg>
      <trkpt lat="45.91597" lon="6.13319">
        <ele>459</ele>
        <time>2017-04-11T14:55:05Z</time>
      </trkpt>
      <trkpt lat="45.91603" lon="6.13329">
        <ele>459</ele>
        <time>2017-04-11T14:55:10Z</time>
      </trkpt>
      <trkpt lat="45.91609" lon="6.13344">
        <ele>459</ele>
        <time>2017-04-11T14:55:15Z</time>
      </trkpt>
      <trkpt lat="45.91624" lon="6.13338">
        <ele>459</ele>
        <time>2017-04-11T14:55:20Z</time>
      </trkpt>
      <trkpt lat="45.91651" lon="6.1333">
        <ele>459</ele>
        <time>2017-04-11T14:55:30Z</time>
      </trkpt>
      <trkpt lat="45.91683" lon="6.13326">
        <ele>459</ele>
        <time>2017-04-11T14:55:40Z</time>
      </trkpt>
      <trkpt lat="45.91723" lon="6.13303">
        <ele>460</ele>
        <time>2017-04-11T14:55:50Z</time>
      </trkpt>
      <trkpt lat="45.91743" lon="6.13305">
        <ele>460</ele>
        <time>2017-04-11T14:55:55Z</time>
      </trkpt>
      <trkpt lat="45.91763" lon="6.13333">
        <ele>460</ele>
        <time>2017-04-11T14:56:00Z</time>
      </trkpt>
      <trkpt lat="45.91783" lon="6.13362">
        <ele>460</ele>
        <time>2017-04-11T14:56:05Z</time>
      </trkpt>
      <trkpt lat="45.91839" lon="6.13455">
        <ele>462</ele>
        <time>2017-04-11T14:56:20Z</time>
      </trkpt>
      <trkpt lat="45.91853" lon="6.13476">
        <ele>462</ele>
        <time>2017-04-11T14:56:25Z</time>
      </trkpt>
      <trkpt lat="45.91864" lon="6.13497">
        <ele>463</ele>
        <time>2017-04-11T14:56:30Z</time>
      </trkpt>
      <trkpt lat="45.91855" lon="6.13522">
        <ele>463</ele>
        <time>2017-04-11T14:56:35Z</time>
      </trkpt>
      <trkpt lat="45.9183" lon="6.13551">
        <ele>462</ele>
        <time>2017-04-11T14:56:40Z</time>
      </trkpt>
      <trkpt lat="45.9178" lon="6.13625">
        <ele>460</ele>
        <time>2017-04-11T14:56:50Z</time>
      </trkpt>
      <trkpt lat="45.91743" lon="6.13632">
        <ele>460</ele>
        <time>2017-04-11T14:56:55Z</time>
      </trkpt>
      <trkpt lat="45.91667" lon="6.13635">
        <ele>459</ele>
        <time>2017-04-11T14:57:05Z</time>
      </trkpt>
      <trkpt lat="45.91637" lon="6.13651">
        <ele>459</ele>
        <time>2017-04-11T14:57:10Z</time>
      </trkpt>
      <trkpt lat="45.91618" lon="6.13694">
        <ele>459</ele>
        <time>2017-04-11T14:57:15Z</time>
      </trkpt>
      <trkpt lat="45.91562" lon="6.1376">
        <ele>458</ele>
        <time>2017-04-11T14:57:25Z</time>
      </trkpt>
      <trkpt lat="45.9155" lon="6.13793">
        <ele>458</ele>
        <time>2017-04-11T14:57:30Z</time>
      </trkpt>
      <trkpt lat="45.91571" lon="6.13825">
        <ele>459</ele>
        <time>2017-04-11T14:57:35Z</time>
      </trkpt>
      <trkpt lat="45.91596" lon="6.13861">
        <ele>459</ele>
        <time>2017-04-11T14:57:40Z</time>
      </trkpt>
      <trkpt lat="45.9164" lon="6.13932">
        <ele>459</ele>
        <time>2017-04-11T14:57:50Z</time>
      </trkpt>
      <trkpt lat="45.91655" lon="6.1397">
        <ele>459</ele>
        <time>2017-04-11T14:57:55Z</time>
      </trkpt>
      <trkpt lat="45.91641" lon="6.14009">
        <ele>460</ele>
        <time>2017-04-11T14:58:00Z</time>
      </trkpt>
      <trkpt lat="45.91633" lon="6.14055">
        <ele>460</ele>
        <time>2017-04-11T14:58:05Z</time>
      </trkpt>
      <trkpt lat="45.91578" lon="6.14191">
        <ele>459</ele>
        <time>2017-04-11T14:58:20Z</time>
      </trkpt>
      <trkpt lat="45.91554" lon="6.14232">
        <ele>459</ele>
        <time>2017-04-11T14:58:25Z</time>
      </trkpt>
      <trkpt lat="45.91553" lon="6.14287">
        <ele>459</ele>
        <time>2017-04-11T14:58:30Z</time>
      </trkpt>
      <trkpt lat="45.91544" lon="6.14405">
        <ele>461</ele>
        <time>2017-04-11T14:58:40Z</time>
      </trkpt>
      <trkpt lat="45.91556" lon="6.14565">
        <ele>466</ele>
        <time>2017-04-11T14:58:55Z</time>
      </trkpt>
      <trkpt lat="45.91563" lon="6.14609">
        <ele>467</ele>
        <time>2017-04-11T14:59:00Z</time>
      </trkpt>
      <trkpt lat="45.91551" lon="6.14647">
        <ele>466</ele>
        <time>2017-04-11T14:59:05Z</time>
      </trkpt>
      <trkpt lat="45.91539" lon="6.14675">
        <ele>466</ele>
        <time>2017-04-11T14:59:10Z</time>
      </trkpt>
      <trkpt lat="45.91489" lon="6.14652">
        <ele>463</ele>
        <time>2017-04-11T14:59:20Z</time>
      </trkpt>
      <trkpt lat="45.91485" lon="6.14689">
        <ele>463</ele>
        <time>2017-04-11T14:59:25Z</time>
      </trkpt>
      <trkpt lat="45.9151" lon="6.1472">
        <ele>463</ele>
        <time>2017-04-11T14:59:30Z</time>
      </trkpt>
      <trkpt lat="45.91577" lon="6.14804">
        <ele>464</ele>
        <time>2017-04-11T14:59:45Z</time>
      </trkpt>
      <trkpt lat="45.91596" lon="6.14833">
        <ele>464</ele>
        <time>2017-04-11T14:59:50Z</time>
      </trkpt>
      <trkpt lat="45.91584" lon="6.14921">
        <ele>463</ele>
        <time>2017-04-11T15:00:00Z</time>
      </trkpt>
      <trkpt lat="45.91563" lon="6.14958">
        <ele>462</ele>
        <time>2017-04-11T15:00:05Z</time>
      </trkpt>
      <trkpt lat="45.9154" lon="6.14988">
        <ele>462</ele>
        <time>2017-04-11T15:00:10Z</time>
      </trkpt>
      <trkpt lat="45.91523" lon="6.15015">
        <ele>462</ele>
        <time>2017-04-11T15:00:15Z</time>
      </trkpt>
      <trkpt lat="45.91513" lon="6.15038">
        <ele>463</ele>
        <time>2017-04-11T15:00:20Z</time>
      </trkpt>
      <trkpt lat="45.91499" lon="6.15099">
        <ele>464</ele>
        <time>2017-04-11T15:00:30Z</time>
      </trkpt>
      <trkpt lat="45.91467" lon="6.1518">
        <ele>464</ele>
        <time>2017-04-11T15:00:40Z</time>
      </trkpt>
      <trkpt lat="45.91406" lon="6.15287">
        <ele>462</ele>
        <time>2017-04-11T15:00:50Z</time>
      </trkpt>
      <trkpt lat="45.91373" lon="6.15346">
        <ele>461</ele>
        <time>2017-04-11T15:00:55Z</time>
      </trkpt>
      <trkpt lat="45.9134" lon="6.15402">
        <ele>459</ele>
        <time>2017-04-11T15:01:00Z</time>
      </trkpt>
      <trkpt lat="45.91272" lon="6.15493">
        <ele>457</ele>
        <time>2017-04-11T15:01:10Z</time>
      </trkpt>
      <trkpt lat="45.91239" lon="6.15527">
        <ele>457</ele>
        <time>2017-04-11T15:01:15Z</time>
      </trkpt>
      <trkpt lat="45.91211" lon="6.1557">
        <ele>458</ele>
        <time>2017-04-11T15:01:20Z</time>
      </trkpt>
      <trkpt lat="45.91146" lon="6.15651">
        <ele>458</ele>
        <time>2017-04-11T15:01:30Z</time>
      </trkpt>
      <trkpt lat="45.9111" lon="6.15684">
        <ele>458</ele>
        <time>2017-04-11T15:01:35Z</time>
      </trkpt>
      <trkpt lat="45.91028" lon="6.15735">
        <ele>457</ele>
        <time>2017-04-11T15:01:45Z</time>
      </trkpt>
      <trkpt lat="45.90986" lon="6.15757">
        <ele>456</ele>
        <time>2017-04-11T15:01:50Z</time>
      </trkpt>
      <trkpt lat="45.90865" lon="6.15832">
        <ele>455</ele>
        <time>2017-04-11T15:02:05Z</time>
      </trkpt>
      <trkpt lat="45.90832" lon="6.15851">
        <ele>455</ele>
        <time>2017-04-11T15:02:10Z</time>
      </trkpt>
      <trkpt lat="45.90802" lon="6.15867">
        <ele>455</ele>
        <time>2017-04-11T15:02:15Z</time>
      </trkpt>
      <trkpt lat="45.90739" lon="6.15879">
        <ele>453</ele>
        <time>2017-04-11T15:02:25Z</time>
      </trkpt>
      <trkpt lat="45.90698" lon="6.15881">
        <ele>452</ele>
        <time>2017-04-11T15:02:30Z</time>
      </trkpt>
      <trkpt lat="45.90655" lon="6.15878">
        <ele>451</ele>
        <time>2017-04-11T15:02:35Z</time>
      </trkpt>
      <trkpt lat="45.90612" lon="6.15875">
        <ele>450</ele>
        <time>2017-04-11T15:02:40Z</time>
      </trkpt>
      <trkpt lat="45.90577" lon="6.15855">
        <ele>448</ele>
        <time>2017-04-11T15:02:45Z</time>
      </trkpt>
      <trkpt lat="45.90563" lon="6.15831">
        <ele>447</ele>
        <time>2017-04-11T15:02:55Z</time>
      </trkpt>
      <trkpt lat="45.90537" lon="6.15835">
        <ele>446</ele>
        <time>2017-04-11T15:03:05Z</time>
      </trkpt>
      <trkpt lat="45.90549" lon="6.15811">
        <ele>446</ele>
        <time>2017-04-11T15:03:10Z</time>
      </trkpt>
      <trkpt lat="45.90563" lon="6.15778">
        <ele>446</ele>
        <time>2017-04-11T15:03:15Z</time>
      </trkpt>
      <trkpt lat="45.90575" lon="6.1574">
        <ele>445</ele>
        <time>2017-04-11T15:03:20Z</time>
      </trkpt>
      <trkpt lat="45.90593" lon="6.15657">
        <ele>445</ele>
        <time>2017-04-11T15:03:30Z</time>
      </trkpt>
      <trkpt lat="45.90597" lon="6.15615">
        <ele>445</ele>
        <time>2017-04-11T15:03:35Z</time>
      </trkpt>
      <trkpt lat="45.90593" lon="6.15573">
        <ele>445</ele>
        <time>2017-04-11T15:03:40Z</time>
      </trkpt>
      <trkpt lat="45.9059" lon="6.15529">
        <ele>446</ele>
        <time>2017-04-11T15:03:45Z</time>
      </trkpt>
      <trkpt lat="45.90583" lon="6.15486">
        <ele>446</ele>
        <time>2017-04-11T15:03:50Z</time>
      </trkpt>
      <trkpt lat="45.90577" lon="6.15439">
        <ele>445</ele>
        <time>2017-04-11T15:03:55Z</time>
      </trkpt>
      <trkpt lat="45.9057" lon="6.15391">
        <ele>445</ele>
        <time>2017-04-11T15:04:00Z</time>
      </trkpt>
      <trkpt lat="45.90562" lon="6.15345">
        <ele>445</ele>
        <time>2017-04-11T15:04:05Z</time>
      </trkpt>
      <trkpt lat="45.90555" lon="6.153">
        <ele>446</ele>
        <time>2017-04-11T15:04:10Z</time>
      </trkpt>
      <trkpt lat="45.90548" lon="6.15253">
        <ele>446</ele>
        <time>2017-04-11T15:04:15Z</time>
      </trkpt>
      <trkpt lat="45.90541" lon="6.15205">
        <ele>446</ele>
        <time>2017-04-11T15:04:20Z</time>
      </trkpt>
      <trkpt lat="45.90525" lon="6.1511">
        <ele>446</ele>
        <time>2017-04-11T15:04:30Z</time>
      </trkpt>
      <trkpt lat="45.90519" lon="6.15062">
        <ele>446</ele>
        <time>2017-04-11T15:04:35Z</time>
      </trkpt>
      <trkpt lat="45.90512" lon="6.15013">
        <ele>445</ele>
        <time>2017-04-11T15:04:40Z</time>
      </trkpt>
      <trkpt lat="45.90504" lon="6.14962">
        <ele>445</ele>
        <time>2017-04-11T15:04:45Z</time>
      </trkpt>
      <trkpt lat="45.90497" lon="6.14911">
        <ele>446</ele>
        <time>2017-04-11T15:04:50Z</time>
      </trkpt>
      <trkpt lat="45.90482" lon="6.14813">
        <ele>446</ele>
        <time>2017-04-11T15:05:00Z</time>
      </trkpt>
      <trkpt lat="45.9047" lon="6.14734">
        <ele>446</ele>
        <time>2017-04-11T15:05:10Z</time>
      </trkpt>
      <trkpt lat="45.90462" lon="6.14653">
        <ele>446</ele>
        <time>2017-04-11T15:05:20Z</time>
      </trkpt>
      <trkpt lat="45.90461" lon="6.14607">
        <ele>446</ele>
        <time>2017-04-11T15:05:25Z</time>
      </trkpt>
      <trkpt lat="45.90463" lon="6.1456">
        <ele>446</ele>
        <time>2017-04-11T15:05:30Z</time>
      </trkpt>
      <trkpt lat="45.90469" lon="6.14512">
        <ele>447</ele>
        <time>2017-04-11T15:05:35Z</time>
      </trkpt>
      <trkpt lat="45.90478" lon="6.14467">
        <ele>447</ele>
        <time>2017-04-11T15:05:40Z</time>
      </trkpt>
      <trkpt lat="45.90501" lon="6.14382">
        <ele>447</ele>
        <time>2017-04-11T15:05:50Z</time>
      </trkpt>
      <trkpt lat="45.90508" lon="6.14338">
        <ele>446</ele>
        <time>2017-04-11T15:05:55Z</time>
      </trkpt>
      <trkpt lat="45.90509" lon="6.14293">
        <ele>446</ele>
        <time>2017-04-11T15:06:00Z</time>
      </trkpt>
      <trkpt lat="45.90504" lon="6.14246">
        <ele>446</ele>
        <time>2017-04-11T15:06:05Z</time>
      </trkpt>
      <trkpt lat="45.90494" lon="6.142">
        <ele>446</ele>
        <time>2017-04-11T15:06:10Z</time>
      </trkpt>
      <trkpt lat="45.9047" lon="6.1411">
        <ele>445</ele>
        <time>2017-04-11T15:06:20Z</time>
      </trkpt>
      <trkpt lat="45.90465" lon="6.14068">
        <ele>445</ele>
        <time>2017-04-11T15:06:25Z</time>
      </trkpt>
      <trkpt lat="45.90441" lon="6.1398">
        <ele>445</ele>
        <time>2017-04-11T15:06:35Z</time>
      </trkpt>
      <trkpt lat="45.90431" lon="6.13939">
        <ele>445</ele>
        <time>2017-04-11T15:06:40Z</time>
      </trkpt>
      <trkpt lat="45.90407" lon="6.13854">
        <ele>445</ele>
        <time>2017-04-11T15:06:50Z</time>
      </trkpt>
      <trkpt lat="45.904" lon="6.13811">
        <ele>445</ele>
        <time>2017-04-11T15:06:55Z</time>
      </trkpt>
      <trkpt lat="45.90387" lon="6.13764">
        <ele>445</ele>
        <time>2017-04-11T15:07:00Z</time>
      </trkpt>
      <trkpt lat="45.90375" lon="6.13718">
        <ele>445</ele>
        <time>2017-04-11T15:07:05Z</time>
      </trkpt>
      <trkpt lat="45.9036" lon="6.13667">
        <ele>445</ele>
        <time>2017-04-11T15:07:10Z</time>
      </trkpt>
      <trkpt lat="45.90343" lon="6.13623">
        <ele>445</ele>
        <time>2017-04-11T15:07:15Z</time>
      </trkpt>
      <trkpt lat="45.90333" lon="6.13588">
        <ele>446</ele>
        <time>2017-04-11T15:07:20Z</time>
      </trkpt>
      <trkpt lat="45.90314" lon="6.13497">
        <ele>446</ele>
        <time>2017-04-11T15:07:30Z</time>
      </trkpt>
      <trkpt lat="45.90303" lon="6.13453">
        <ele>446</ele>
        <time>2017-04-11T15:07:35Z</time>
      </trkpt>
      <trkpt lat="45.90286" lon="6.13408">
        <ele>446</ele>
        <time>2017-04-11T15:07:40Z</time>
      </trkpt>
      <trkpt lat="45.90275" lon="6.13364">
        <ele>446</ele>
        <time>2017-04-11T15:07:45Z</time>
      </trkpt>
      <trkpt lat="45.90232" lon="6.1322">
        <ele>446</ele>
        <time>2017-04-11T15:08:00Z</time>
      </trkpt>
      <trkpt lat="45.90219" lon="6.13168">
        <ele>446</ele>
        <time>2017-04-11T15:08:05Z</time>
      </trkpt>
      <trkpt lat="45.90206" lon="6.1312">
        <ele>446</ele>
        <time>2017-04-11T15:08:10Z</time>
      </trkpt>
      <trkpt lat="45.90195" lon="6.13077">
        <ele>446</ele>
        <time>2017-04-11T15:08:15Z</time>
      </trkpt>
      <trkpt lat="45.90173" lon="6.1299">
        <ele>446</ele>
        <time>2017-04-11T15:08:25Z</time>
      </trkpt>
      <trkpt lat="45.90144" lon="6.12869">
        <ele>446</ele>
        <time>2017-04-11T15:08:40Z</time>
      </trkpt>
      <trkpt lat="45.9012" lon="6.12797">
        <ele>445</ele>
        <time>2017-04-11T15:08:50Z</time>
      </trkpt>
      <trkpt lat="45.90106" lon="6.1277">
        <ele>445</ele>
        <time>2017-04-11T15:08:55Z</time>
      </trkpt>
      <trkpt lat="45.90087" lon="6.12775">
        <ele>445</ele>
        <time>2017-04-11T15:09:00Z</time>
      </trkpt>
      <trkpt lat="45.9007" lon="6.12783">
        <ele>444</ele>
        <time>2017-04-11T15:09:05Z</time>
      </trkpt>
      <trkpt lat="45.90063" lon="6.12786">
        <ele>444</ele>
        <time>2017-04-11T15:09:10Z</time>
      </trkpt>
      <trkpt lat="45.90049" lon="6.12793">
        <ele>444</ele>
        <time>2017-04-11T15:09:15Z</time>
      </trkpt>
      <trkpt lat="45.90028" lon="6.1281">
        <ele>443</ele>
        <time>2017-04-11T15:09:20Z</time>
      </trkpt>
      <trkpt lat="45.90017" lon="6.12837">
        <ele>443</ele>
        <time>2017-04-11T15:09:25Z</time>
      </trkpt>
      <trkpt lat="45.90012" lon="6.12887">
        <ele>444</ele>
        <time>2017-04-11T15:09:35Z</time>
      </trkpt>
      <trkpt lat="45.89999" lon="6.12894">
        <ele>444</ele>
        <time>2017-04-11T15:09:40Z</time>
      </trkpt>
      <trkpt lat="45.89982" lon="6.12894">
        <ele>443</ele>
        <time>2017-04-11T15:09:45Z</time>
      </trkpt>
      <trkpt lat="45.89963" lon="6.12894">
        <ele>443</ele>
        <time>2017-04-11T15:09:50Z</time>
      </trkpt>
      <trkpt lat="45.8992" lon="6.12902">
        <ele>443</ele>
        <time>2017-04-11T15:10:00Z</time>
      </trkpt>
      <trkpt lat="45.89898" lon="6.12901">
        <ele>443</ele>
        <time>2017-04-11T15:10:05Z</time>
      </trkpt>
      <trkpt lat="45.89877" lon="6.12902">
        <ele>443</ele>
        <time>2017-04-11T15:10:10Z</time>
      </trkpt>
      <trkpt lat="45.89858" lon="6.12908">
        <ele>443</ele>
        <time>2017-04-11T15:10:15Z</time>
      </trkpt>
      <trkpt lat="45.89847" lon="6.12914">
        <ele>444</ele>
        <time>2017-04-11T15:10:20Z</time>
      </trkpt>
      <trkpt lat="45.89815" lon="6.12918">
        <ele>444</ele>
        <time>2017-04-11T15:10:30Z</time>
      </trkpt>
      <trkpt lat="45.8981" lon="6.12944">
        <ele>444</ele>
        <time>2017-04-11T15:10:35Z</time>
      </trkpt>
      <trkpt lat="45.89811" lon="6.12985">
        <ele>444</ele>
        <time>2017-04-11T15:10:45Z</time>
      </trkpt>
      <trkpt lat="45.89807" lon="6.13003">
        <ele>444</ele>
        <time>2017-04-11T15:10:50Z</time>
      </trkpt>
      <trkpt lat="45.898" lon="6.13005">
        <ele>444</ele>
        <time>2017-04-11T15:10:55Z</time>
      </trkpt>
      <trkpt lat="45.89798" lon="6.13004">
        <ele>444</ele>
        <time>2017-04-11T15:11:00Z</time>
      </trkpt>
      <trkpt lat="45.89796" lon="6.13005">
        <ele>444</ele>
        <time>2017-04-11T15:11:05Z</time>
      </trkpt>
      <trkpt lat="45.89794" lon="6.13009">
        <ele>444</ele>
        <time>2017-04-11T15:11:10Z</time>
      </trkpt>
      <trkpt lat="45.89791" lon="6.13028">
        <ele>444</ele>
        <time>2017-04-11T15:11:20Z</time>
      </trkpt>
      <trkpt lat="45.89791" lon="6.13039">
        <ele>444</ele>
        <time>2017-04-11T15:11:25Z</time>
      </trkpt>
      <trkpt lat="45.89788" lon="6.13049">
        <ele>444</ele>
        <time>2017-04-11T15:11:35Z</time>
      </trkpt>
      <trkpt lat="45.89788" lon="6.13049">
        <ele>444</ele>
        <time>2017-04-11T15:11:40Z</time>
      </trkpt>
      <trkpt lat="45.89788" lon="6.13049">
        <ele>444</ele>
        <time>2017-04-11T15:11:45Z</time>
      </trkpt>
      <trkpt lat="45.89788" lon="6.13049">
        <ele>444</ele>
        <time>2017-04-11T15:11:55Z</time>
      </trkpt>
      <trkpt lat="45.89792" lon="6.13062">
        <ele>444</ele>
        <time>2017-04-11T15:12:00Z</time>
      </trkpt>
      <trkpt lat="45.89794" lon="6.13107">
        <ele>444</ele>
        <time>2017-04-11T15:12:10Z</time>
      </trkpt>
      <trkpt lat="45.89793" lon="6.13173">
        <ele>444</ele>
        <time>2017-04-11T15:12:20Z</time>
      </trkpt>
      <trkpt lat="45.89791" lon="6.13204">
        <ele>445</ele>
        <time>2017-04-11T15:12:25Z</time>
      </trkpt>
      <trkpt lat="45.89796" lon="6.13241">
        <ele>445</ele>
        <time>2017-04-11T15:12:35Z</time>
      </trkpt>
      <trkpt lat="45.89786" lon="6.13272">
        <ele>445</ele>
        <time>2017-04-11T15:12:40Z</time>
      </trkpt>
      <trkpt lat="45.89771" lon="6.13305">
        <ele>446</ele>
        <time>2017-04-11T15:12:45Z</time>
      </trkpt>
      <trkpt lat="45.89752" lon="6.13336">
        <ele>446</ele>
        <time>2017-04-11T15:12:50Z</time>
      </trkpt>
      <trkpt lat="45.89731" lon="6.13363">
        <ele>445</ele>
        <time>2017-04-11T15:12:55Z</time>
      </trkpt>
      <trkpt lat="45.89714" lon="6.13383">
        <ele>445</ele>
        <time>2017-04-11T15:13:00Z</time>
      </trkpt>
      <trkpt lat="45.89708" lon="6.13391">
        <ele>445</ele>
        <time>2017-04-11T15:13:05Z</time>
      </trkpt>
      <trkpt lat="45.89705" lon="6.13394">
        <ele>445</ele>
        <time>2017-04-11T15:13:10Z</time>
      </trkpt>
      <trkpt lat="45.89648" lon="6.13462">
        <ele>445</ele>
        <time>2017-04-11T15:13:25Z</time>
      </trkpt>
      <trkpt lat="45.89624" lon="6.13476">
        <ele>445</ele>
        <time>2017-04-11T15:13:30Z</time>
      </trkpt>
      <trkpt lat="45.8959" lon="6.13411">
        <ele>446</ele>
        <time>2017-04-11T15:13:40Z</time>
      </trkpt>
      <trkpt lat="45.89573" lon="6.13378">
        <ele>447</ele>
        <time>2017-04-11T15:13:45Z</time>
      </trkpt>
      <trkpt lat="45.89554" lon="6.13365">
        <ele>447</ele>
        <time>2017-04-11T15:13:50Z</time>
      </trkpt>
      <trkpt lat="45.89534" lon="6.13389">
        <ele>447</ele>
        <time>2017-04-11T15:13:55Z</time>
      </trkpt>
      <trkpt lat="45.89496" lon="6.13409">
        <ele>448</ele>
        <time>2017-04-11T15:14:05Z</time>
      </trkpt>
      <trkpt lat="45.89449" lon="6.13459">
        <ele>447</ele>
        <time>2017-04-11T15:14:15Z</time>
      </trkpt>
      <trkpt lat="45.89427" lon="6.13486">
        <ele>447</ele>
        <time>2017-04-11T15:14:20Z</time>
      </trkpt>
      <trkpt lat="45.89408" lon="6.1352">
        <ele>447</ele>
        <time>2017-04-11T15:14:25Z</time>
      </trkpt>
      <trkpt lat="45.89384" lon="6.13552">
        <ele>447</ele>
        <time>2017-04-11T15:14:30Z</time>
      </trkpt>
      <trkpt lat="45.89337" lon="6.13624">
        <ele>446</ele>
        <time>2017-04-11T15:14:40Z</time>
      </trkpt>
      <trkpt lat="45.89289" lon="6.13687">
        <ele>447</ele>
        <time>2017-04-11T15:14:50Z</time>
      </trkpt>
      <trkpt lat="45.89239" lon="6.13769">
        <ele>446</ele>
        <time>2017-04-11T15:15:00Z</time>
      </trkpt>
      <trkpt lat="45.89213" lon="6.13813">
        <ele>446</ele>
        <time>2017-04-11T15:15:05Z</time>
      </trkpt>
      <trkpt lat="45.89187" lon="6.13858">
        <ele>446</ele>
        <time>2017-04-11T15:15:10Z</time>
      </trkpt>
      <trkpt lat="45.89113" lon="6.13992">
        <ele>447</ele>
        <time>2017-04-11T15:15:25Z</time>
      </trkpt>
      <trkpt lat="45.89091" lon="6.14039">
        <ele>447</ele>
        <time>2017-04-11T15:15:30Z</time>
      </trkpt>
      <trkpt lat="45.89074" lon="6.1409">
        <ele>447</ele>
        <time>2017-04-11T15:15:35Z</time>
      </trkpt>
      <trkpt lat="45.89053" lon="6.14251">
        <ele>445</ele>
        <time>2017-04-11T15:15:50Z</time>
      </trkpt>
      <trkpt lat="45.89032" lon="6.14302">
        <ele>445</ele>
        <time>2017-04-11T15:15:55Z</time>
      </trkpt>
      <trkpt lat="45.88998" lon="6.14343">
        <ele>445</ele>
        <time>2017-04-11T15:16:00Z</time>
      </trkpt>
      <trkpt lat="45.88954" lon="6.14364">
        <ele>445</ele>
        <time>2017-04-11T15:16:05Z</time>
      </trkpt>
      <trkpt lat="45.88908" lon="6.14368">
        <ele>445</ele>
        <time>2017-04-11T15:16:10Z</time>
      </trkpt>
      <trkpt lat="45.88866" lon="6.14369">
        <ele>445</ele>
        <time>2017-04-11T15:16:15Z</time>
      </trkpt>
      <trkpt lat="45.88834" lon="6.14368">
        <ele>445</ele>
        <time>2017-04-11T15:16:20Z</time>
      </trkpt>
      <trkpt lat="45.88798" lon="6.14357">
        <ele>445</ele>
        <time>2017-04-11T15:16:25Z</time>
      </trkpt>
      <trkpt lat="45.88757" lon="6.14346">
        <ele>445</ele>
        <time>2017-04-11T15:16:30Z</time>
      </trkpt>
      <trkpt lat="45.88676" lon="6.14315">
        <ele>447</ele>
        <time>2017-04-11T15:16:40Z</time>
      </trkpt>
      <trkpt lat="45.88553" lon="6.14252">
        <ele>451</ele>
        <time>2017-04-11T15:16:55Z</time>
      </trkpt>
      <trkpt lat="45.88511" lon="6.14237">
        <ele>452</ele>
        <time>2017-04-11T15:17:00Z</time>
      </trkpt>
      <trkpt lat="45.8847" lon="6.14228">
        <ele>451</ele>
        <time>2017-04-11T15:17:05Z</time>
      </trkpt>
      <trkpt lat="45.88387" lon="6.14215">
        <ele>449</ele>
        <time>2017-04-11T15:17:15Z</time>
      </trkpt>
      <trkpt lat="45.88306" lon="6.14198">
        <ele>449</ele>
        <time>2017-04-11T15:17:25Z</time>
      </trkpt>
      <trkpt lat="45.88266" lon="6.14197">
        <ele>449</ele>
        <time>2017-04-11T15:17:30Z</time>
      </trkpt>
      <trkpt lat="45.88231" lon="6.14199">
        <ele>449</ele>
        <time>2017-04-11T15:17:35Z</time>
      </trkpt>
      <trkpt lat="45.88196" lon="6.14202">
        <ele>449</ele>
        <time>2017-04-11T15:17:40Z</time>
      </trkpt>
      <trkpt lat="45.88144" lon="6.14202">
        <ele>449</ele>
        <time>2017-04-11T15:17:50Z</time>
      </trkpt>
      <trkpt lat="45.88121" lon="6.14211">
        <ele>449</ele>
        <time>2017-04-11T15:17:55Z</time>
      </trkpt>
      <trkpt lat="45.88062" lon="6.14246">
        <ele>448</ele>
        <time>2017-04-11T15:18:05Z</time>
      </trkpt>
      <trkpt lat="45.88028" lon="6.14258">
        <ele>448</ele>
        <time>2017-04-11T15:18:10Z</time>
      </trkpt>
      <trkpt lat="45.87993" lon="6.14263">
        <ele>447</ele>
        <time>2017-04-11T15:18:15Z</time>
      </trkpt>
      <trkpt lat="45.87956" lon="6.14264">
        <ele>447</ele>
        <time>2017-04-11T15:18:20Z</time>
      </trkpt>
      <trkpt lat="45.87879" lon="6.14259">
        <ele>448</ele>
        <time>2017-04-11T15:18:30Z</time>
      </trkpt>
      <trkpt lat="45.87841" lon="6.1426">
        <ele>448</ele>
        <time>2017-04-11T15:18:35Z</time>
      </trkpt>
      <trkpt lat="45.87803" lon="6.14267">
        <ele>448</ele>
        <time>2017-04-11T15:18:40Z</time>
      </trkpt>
      <trkpt lat="45.8772" lon="6.14294">
        <ele>447</ele>
        <time>2017-04-11T15:18:50Z</time>
      </trkpt>
      <trkpt lat="45.87677" lon="6.14306">
        <ele>447</ele>
        <time>2017-04-11T15:18:55Z</time>
      </trkpt>
      <trkpt lat="45.87634" lon="6.14309">
        <ele>446</ele>
        <time>2017-04-11T15:19:00Z</time>
      </trkpt>
      <trkpt lat="45.87545" lon="6.14306">
        <ele>448</ele>
        <time>2017-04-11T15:19:10Z</time>
      </trkpt>
      <trkpt lat="45.875" lon="6.14305">
        <ele>448</ele>
        <time>2017-04-11T15:19:15Z</time>
      </trkpt>
      <trkpt lat="45.87455" lon="6.14311">
        <ele>448</ele>
        <time>2017-04-11T15:19:20Z</time>
      </trkpt>
      <trkpt lat="45.87409" lon="6.14326">
        <ele>447</ele>
        <time>2017-04-11T15:19:25Z</time>
      </trkpt>
      <trkpt lat="45.87273" lon="6.14375">
        <ele>447</ele>
        <time>2017-04-11T15:19:40Z</time>
      </trkpt>
      <trkpt lat="45.87228" lon="6.14384">
        <ele>447</ele>
        <time>2017-04-11T15:19:45Z</time>
      </trkpt>
      <trkpt lat="45.8714" lon="6.14377">
        <ele>447</ele>
        <time>2017-04-11T15:19:55Z</time>
      </trkpt>
      <trkpt lat="45.87099" lon="6.14363">
        <ele>448</ele>
        <time>2017-04-11T15:20:00Z</time>
      </trkpt>
      <trkpt lat="45.87059" lon="6.14344">
        <ele>448</ele>
        <time>2017-04-11T15:20:05Z</time>
      </trkpt>
      <trkpt lat="45.86982" lon="6.14298">
        <ele>449</ele>
        <time>2017-04-11T15:20:15Z</time>
      </trkpt>
      <trkpt lat="45.86943" lon="6.1428">
        <ele>449</ele>
        <time>2017-04-11T15:20:20Z</time>
      </trkpt>
      <trkpt lat="45.86903" lon="6.14268">
        <ele>449</ele>
        <time>2017-04-11T15:20:25Z</time>
      </trkpt>
      <trkpt lat="45.86863" lon="6.14266">
        <ele>449</ele>
        <time>2017-04-11T15:20:30Z</time>
      </trkpt>
      <trkpt lat="45.86823" lon="6.14274">
        <ele>449</ele>
        <time>2017-04-11T15:20:35Z</time>
      </trkpt>
      <trkpt lat="45.8675" lon="6.14306">
        <ele>448</ele>
        <time>2017-04-11T15:20:45Z</time>
      </trkpt>
      <trkpt lat="45.86727" lon="6.14307">
        <ele>448</ele>
        <time>2017-04-11T15:20:50Z</time>
      </trkpt>
      <trkpt lat="45.86709" lon="6.14296">
        <ele>449</ele>
        <time>2017-04-11T15:20:55Z</time>
      </trkpt>
      <trkpt lat="45.86658" lon="6.1429">
        <ele>449</ele>
        <time>2017-04-11T15:21:05Z</time>
      </trkpt>
      <trkpt lat="45.86633" lon="6.14282">
        <ele>449</ele>
        <time>2017-04-11T15:21:10Z</time>
      </trkpt>
      <trkpt lat="45.86583" lon="6.14259">
        <ele>449</ele>
        <time>2017-04-11T15:21:20Z</time>
      </trkpt>
      <trkpt lat="45.86536" lon="6.14239">
        <ele>450</ele>
        <time>2017-04-11T15:21:30Z</time>
      </trkpt>
      <trkpt lat="45.86494" lon="6.1422">
        <ele>451</ele>
        <time>2017-04-11T15:21:40Z</time>
      </trkpt>
      <trkpt lat="45.86472" lon="6.14217">
        <ele>452</ele>
        <time>2017-04-11T15:21:45Z</time>
      </trkpt>
      <trkpt lat="45.86411" lon="6.14221">
        <ele>452</ele>
        <time>2017-04-11T15:22:00Z</time>
      </trkpt>
      <trkpt lat="45.8639" lon="6.14215">
        <ele>452</ele>
        <time>2017-04-11T15:22:05Z</time>
      </trkpt>
      <trkpt lat="45.86373" lon="6.1419">
        <ele>453</ele>
        <time>2017-04-11T15:22:10Z</time>
      </trkpt>
      <trkpt lat="45.86368" lon="6.14147">
        <ele>455</ele>
        <time>2017-04-11T15:22:15Z</time>
      </trkpt>
      <trkpt lat="45.86361" lon="6.14064">
        <ele>457</ele>
        <time>2017-04-11T15:22:25Z</time>
      </trkpt>
      <trkpt lat="45.86359" lon="6.1405">
        <ele>458</ele>
        <time>2017-04-11T15:22:35Z</time>
      </trkpt>
      <trkpt lat="45.86357" lon="6.14046">
        <ele>458</ele>
        <time>2017-04-11T15:22:40Z</time>
      </trkpt>
      <trkpt lat="45.86343" lon="6.14045">
        <ele>458</ele>
        <time>2017-04-11T15:22:45Z</time>
      </trkpt>
      <trkpt lat="45.86305" lon="6.1406">
        <ele>457</ele>
        <time>2017-04-11T15:22:55Z</time>
      </trkpt>
      <trkpt lat="45.86275" lon="6.14066">
        <ele>458</ele>
        <time>2017-04-11T15:23:00Z</time>
      </trkpt>
      <trkpt lat="45.86252" lon="6.1404">
        <ele>459</ele>
        <time>2017-04-11T15:23:05Z</time>
      </trkpt>
      <trkpt lat="45.86223" lon="6.13973">
        <ele>465</ele>
        <time>2017-04-11T15:23:15Z</time>
      </trkpt>
      <trkpt lat="45.86204" lon="6.1395">
        <ele>468</ele>
        <time>2017-04-11T15:23:20Z</time>
      </trkpt>
      <trkpt lat="45.86183" lon="6.13935">
        <ele>470</ele>
        <time>2017-04-11T15:23:25Z</time>
      </trkpt>
      <trkpt lat="45.86138" lon="6.1391">
        <ele>474</ele>
        <time>2017-04-11T15:23:35Z</time>
      </trkpt>
      <trkpt lat="45.86077" lon="6.1387">
        <ele>478</ele>
        <time>2017-04-11T15:23:50Z</time>
      </trkpt>
      <trkpt lat="45.8604" lon="6.13849">
        <ele>479</ele>
        <time>2017-04-11T15:24:00Z</time>
      </trkpt>
      <trkpt lat="45.8602" lon="6.13845">
        <ele>480</ele>
        <time>2017-04-11T15:24:05Z</time>
      </trkpt>
      <trkpt lat="45.86001" lon="6.13841">
        <ele>480</ele>
        <time>2017-04-11T15:24:10Z</time>
      </trkpt>
      <trkpt lat="45.8598" lon="6.13837">
        <ele>480</ele>
        <time>2017-04-11T15:24:15Z</time>
      </trkpt>
      <trkpt lat="45.85958" lon="6.13835">
        <ele>481</ele>
        <time>2017-04-11T15:24:20Z</time>
      </trkpt>
      <trkpt lat="45.85891" lon="6.13824">
        <ele>482</ele>
        <time>2017-04-11T15:24:35Z</time>
      </trkpt>
      <trkpt lat="45.85868" lon="6.13823">
        <ele>483</ele>
        <time>2017-04-11T15:24:40Z</time>
      </trkpt>
      <trkpt lat="45.85846" lon="6.13823">
        <ele>484</ele>
        <time>2017-04-11T15:24:45Z</time>
      </trkpt>
      <trkpt lat="45.85803" lon="6.13829">
        <ele>484</ele>
        <time>2017-04-11T15:24:55Z</time>
      </trkpt>
      <trkpt lat="45.85782" lon="6.13833">
        <ele>484</ele>
        <time>2017-04-11T15:25:00Z</time>
      </trkpt>
      <trkpt lat="45.857" lon="6.13842">
        <ele>484</ele>
        <time>2017-04-11T15:25:20Z</time>
      </trkpt>
      <trkpt lat="45.85679" lon="6.13844">
        <ele>484</ele>
        <time>2017-04-11T15:25:25Z</time>
      </trkpt>
      <trkpt lat="45.85637" lon="6.13847">
        <ele>484</ele>
        <time>2017-04-11T15:25:35Z</time>
      </trkpt>
      <trkpt lat="45.85617" lon="6.13846">
        <ele>485</ele>
        <time>2017-04-11T15:25:40Z</time>
      </trkpt>
      <trkpt lat="45.85597" lon="6.13844">
        <ele>485</ele>
        <time>2017-04-11T15:25:45Z</time>
      </trkpt>
      <trkpt lat="45.85577" lon="6.1384">
        <ele>487</ele>
        <time>2017-04-11T15:25:50Z</time>
      </trkpt>
      <trkpt lat="45.85556" lon="6.13834">
        <ele>488</ele>
        <time>2017-04-11T15:25:55Z</time>
      </trkpt>
      <trkpt lat="45.85495" lon="6.13813">
        <ele>496</ele>
        <time>2017-04-11T15:26:10Z</time>
      </trkpt>
      <trkpt lat="45.85475" lon="6.13808">
        <ele>498</ele>
        <time>2017-04-11T15:26:15Z</time>
      </trkpt>
      <trkpt lat="45.85433" lon="6.13801">
        <ele>503</ele>
        <time>2017-04-11T15:26:25Z</time>
      </trkpt>
      <trkpt lat="45.8541" lon="6.13802">
        <ele>504</ele>
        <time>2017-04-11T15:26:30Z</time>
      </trkpt>
      <trkpt lat="45.85388" lon="6.13804">
        <ele>505</ele>
        <time>2017-04-11T15:26:35Z</time>
      </trkpt>
      <trkpt lat="45.85366" lon="6.13808">
        <ele>505</ele>
        <time>2017-04-11T15:26:40Z</time>
      </trkpt>
      <trkpt lat="45.85323" lon="6.13813">
        <ele>506</ele>
        <time>2017-04-11T15:26:50Z</time>
      </trkpt>
      <trkpt lat="45.85302" lon="6.13813">
        <ele>507</ele>
        <time>2017-04-11T15:26:55Z</time>
      </trkpt>
      <trkpt lat="45.85281" lon="6.13808">
        <ele>509</ele>
        <time>2017-04-11T15:27:00Z</time>
      </trkpt>
      <trkpt lat="45.85243" lon="6.13797">
        <ele>514</ele>
        <time>2017-04-11T15:27:10Z</time>
      </trkpt>
      <trkpt lat="45.85203" lon="6.13784">
        <ele>519</ele>
        <time>2017-04-11T15:27:20Z</time>
      </trkpt>
      <trkpt lat="45.85181" lon="6.13779">
        <ele>521</ele>
        <time>2017-04-11T15:27:25Z</time>
      </trkpt>
      <trkpt lat="45.85139" lon="6.13764">
        <ele>527</ele>
        <time>2017-04-11T15:27:35Z</time>
      </trkpt>
      <trkpt lat="45.85101" lon="6.13741">
        <ele>535</ele>
        <time>2017-04-11T15:27:45Z</time>
      </trkpt>
      <trkpt lat="45.85068" lon="6.13711">
        <ele>543</ele>
        <time>2017-04-11T15:27:55Z</time>
      </trkpt>
      <trkpt lat="45.85048" lon="6.13707">
        <ele>545</ele>
        <time>2017-04-11T15:28:00Z</time>
      </trkpt>
      <trkpt lat="45.85028" lon="6.13708">
        <ele>545</ele>
        <time>2017-04-11T15:28:05Z</time>
      </trkpt>
      <trkpt lat="45.85006" lon="6.13712">
        <ele>545</ele>
        <time>2017-04-11T15:28:10Z</time>
      </trkpt>
      <trkpt lat="45.84985" lon="6.13722">
        <ele>543</ele>
        <time>2017-04-11T15:28:15Z</time>
      </trkpt>
      <trkpt lat="45.8497" lon="6.13746">
        <ele>538</ele>
        <time>2017-04-11T15:28:20Z</time>
      </trkpt>
      <trkpt lat="45.84955" lon="6.13801">
        <ele>525</ele>
        <time>2017-04-11T15:28:30Z</time>
      </trkpt>
      <trkpt lat="45.84943" lon="6.13823">
        <ele>521</ele>
        <time>2017-04-11T15:28:35Z</time>
      </trkpt>
      <trkpt lat="45.84904" lon="6.13844">
        <ele>518</ele>
        <time>2017-04-11T15:28:45Z</time>
      </trkpt>
      <trkpt lat="45.84883" lon="6.13843">
        <ele>520</ele>
        <time>2017-04-11T15:28:50Z</time>
      </trkpt>
      <trkpt lat="45.84842" lon="6.13835">
        <ele>523</ele>
        <time>2017-04-11T15:29:00Z</time>
      </trkpt>
      <trkpt lat="45.84822" lon="6.13832">
        <ele>525</ele>
        <time>2017-04-11T15:29:05Z</time>
      </trkpt>
      <trkpt lat="45.84803" lon="6.13832">
        <ele>525</ele>
        <time>2017-04-11T15:29:10Z</time>
      </trkpt>
      <trkpt lat="45.84783" lon="6.13835">
        <ele>526</ele>
        <time>2017-04-11T15:29:15Z</time>
      </trkpt>
      <trkpt lat="45.84764" lon="6.13838">
        <ele>526</ele>
        <time>2017-04-11T15:29:20Z</time>
      </trkpt>
      <trkpt lat="45.84728" lon="6.13842">
        <ele>527</ele>
        <time>2017-04-11T15:29:30Z</time>
      </trkpt>
      <trkpt lat="45.84671" lon="6.13843">
        <ele>529</ele>
        <time>2017-04-11T15:29:45Z</time>
      </trkpt>
      <trkpt lat="45.84651" lon="6.13845">
        <ele>530</ele>
        <time>2017-04-11T15:29:50Z</time>
      </trkpt>
      <trkpt lat="45.8463" lon="6.1384">
        <ele>531</ele>
        <time>2017-04-11T15:29:55Z</time>
      </trkpt>
      <trkpt lat="45.84591" lon="6.13827">
        <ele>533</ele>
        <time>2017-04-11T15:30:05Z</time>
      </trkpt>
      <trkpt lat="45.84571" lon="6.13821">
        <ele>535</ele>
        <time>2017-04-11T15:30:10Z</time>
      </trkpt>
      <trkpt lat="45.84535" lon="6.13804">
        <ele>538</ele>
        <time>2017-04-11T15:30:20Z</time>
      </trkpt>
      <trkpt lat="45.84491" lon="6.13793">
        <ele>541</ele>
        <time>2017-04-11T15:30:30Z</time>
      </trkpt>
      <trkpt lat="45.8447" lon="6.13792">
        <ele>543</ele>
        <time>2017-04-11T15:30:35Z</time>
      </trkpt>
      <trkpt lat="45.8445" lon="6.13795">
        <ele>543</ele>
        <time>2017-04-11T15:30:40Z</time>
      </trkpt>
      <trkpt lat="45.84388" lon="6.13806">
        <ele>545</ele>
        <time>2017-04-11T15:30:55Z</time>
      </trkpt>
      <trkpt lat="45.84368" lon="6.13808">
        <ele>546</ele>
        <time>2017-04-11T15:31:00Z</time>
      </trkpt>
      <trkpt lat="45.84349" lon="6.13805">
        <ele>548</ele>
        <time>2017-04-11T15:31:05Z</time>
      </trkpt>
      <trkpt lat="45.8431" lon="6.13793">
        <ele>552</ele>
        <time>2017-04-11T15:31:15Z</time>
      </trkpt>
      <trkpt lat="45.84254" lon="6.13772">
        <ele>558</ele>
        <time>2017-04-11T15:31:30Z</time>
      </trkpt>
      <trkpt lat="45.84238" lon="6.13769">
        <ele>559</ele>
        <time>2017-04-11T15:31:35Z</time>
      </trkpt>
      <trkpt lat="45.84205" lon="6.13767">
        <ele>560</ele>
        <time>2017-04-11T15:31:45Z</time>
      </trkpt>
      <trkpt lat="45.8419" lon="6.13779">
        <ele>560</ele>
        <time>2017-04-11T15:31:50Z</time>
      </trkpt>
      <trkpt lat="45.84182" lon="6.13805">
        <ele>560</ele>
        <time>2017-04-11T15:31:55Z</time>
      </trkpt>
      <trkpt lat="45.84189" lon="6.13827">
        <ele>560</ele>
        <time>2017-04-11T15:32:00Z</time>
      </trkpt>
      <trkpt lat="45.84238" lon="6.13868">
        <ele>556</ele>
        <time>2017-04-11T15:32:15Z</time>
      </trkpt>
      <trkpt lat="45.84242" lon="6.13895">
        <ele>554</ele>
        <time>2017-04-11T15:32:20Z</time>
      </trkpt>
      <trkpt lat="45.84233" lon="6.13915">
        <ele>555</ele>
        <time>2017-04-11T15:32:25Z</time>
      </trkpt>
      <trkpt lat="45.84204" lon="6.13944">
        <ele>557</ele>
        <time>2017-04-11T15:32:35Z</time>
      </trkpt>
      <trkpt lat="45.84187" lon="6.1395">
        <ele>559</ele>
        <time>2017-04-11T15:32:40Z</time>
      </trkpt>
      <trkpt lat="45.84169" lon="6.13954">
        <ele>560</ele>
        <time>2017-04-11T15:32:45Z</time>
      </trkpt>
      <trkpt lat="45.8415" lon="6.13953">
        <ele>562</ele>
        <time>2017-04-11T15:32:50Z</time>
      </trkpt>
      <trkpt lat="45.8413" lon="6.13953">
        <ele>564</ele>
        <time>2017-04-11T15:32:55Z</time>
      </trkpt>
      <trkpt lat="45.84073" lon="6.13958">
        <ele>568</ele>
        <time>2017-04-11T15:33:10Z</time>
      </trkpt>
      <trkpt lat="45.84037" lon="6.1396">
        <ele>571</ele>
        <time>2017-04-11T15:33:20Z</time>
      </trkpt>
      <trkpt lat="45.83997" lon="6.13968">
        <ele>574</ele>
        <time>2017-04-11T15:33:30Z</time>
      </trkpt>
      <trkpt lat="45.83958" lon="6.13974">
        <ele>577</ele>
        <time>2017-04-11T15:33:40Z</time>
      </trkpt>
      <trkpt lat="45.83934" lon="6.13988">
        <ele>578</ele>
        <time>2017-04-11T15:33:45Z</time>
      </trkpt>
      <trkpt lat="45.83909" lon="6.13999">
        <ele>579</ele>
        <time>2017-04-11T15:33:50Z</time>
      </trkpt>
      <trkpt lat="45.83865" lon="6.14009">
        <ele>581</ele>
        <time>2017-04-11T15:34:00Z</time>
      </trkpt>
      <trkpt lat="45.83846" lon="6.14017">
        <ele>581</ele>
        <time>2017-04-11T15:34:05Z</time>
      </trkpt>
      <trkpt lat="45.83828" lon="6.14031">
        <ele>581</ele>
        <time>2017-04-11T15:34:10Z</time>
      </trkpt>
      <trkpt lat="45.83811" lon="6.14046">
        <ele>581</ele>
        <time>2017-04-11T15:34:15Z</time>
      </trkpt>
      <trkpt lat="45.83778" lon="6.14077">
        <ele>580</ele>
        <time>2017-04-11T15:34:25Z</time>
      </trkpt>
      <trkpt lat="45.83744" lon="6.14107">
        <ele>579</ele>
        <time>2017-04-11T15:34:35Z</time>
      </trkpt>
      <trkpt lat="45.83708" lon="6.14139">
        <ele>579</ele>
        <time>2017-04-11T15:34:45Z</time>
      </trkpt>
      <trkpt lat="45.83673" lon="6.14163">
        <ele>578</ele>
        <time>2017-04-11T15:34:55Z</time>
      </trkpt>
      <trkpt lat="45.83655" lon="6.14172">
        <ele>579</ele>
        <time>2017-04-11T15:35:00Z</time>
      </trkpt>
      <trkpt lat="45.83619" lon="6.14186">
        <ele>580</ele>
        <time>2017-04-11T15:35:10Z</time>
      </trkpt>
      <trkpt lat="45.83602" lon="6.14192">
        <ele>581</ele>
        <time>2017-04-11T15:35:15Z</time>
      </trkpt>
      <trkpt lat="45.83584" lon="6.142">
        <ele>581</ele>
        <time>2017-04-11T15:35:20Z</time>
      </trkpt>
      <trkpt lat="45.83563" lon="6.14206">
        <ele>582</ele>
        <time>2017-04-11T15:35:25Z</time>
      </trkpt>
      <trkpt lat="45.83542" lon="6.14209">
        <ele>583</ele>
        <time>2017-04-11T15:35:30Z</time>
      </trkpt>
      <trkpt lat="45.83486" lon="6.14232">
        <ele>581</ele>
        <time>2017-04-11T15:35:40Z</time>
      </trkpt>
      <trkpt lat="45.83461" lon="6.14233">
        <ele>583</ele>
        <time>2017-04-11T15:35:45Z</time>
      </trkpt>
      <trkpt lat="45.83438" lon="6.14232">
        <ele>584</ele>
        <time>2017-04-11T15:35:50Z</time>
      </trkpt>
      <trkpt lat="45.83416" lon="6.14225">
        <ele>587</ele>
        <time>2017-04-11T15:35:55Z</time>
      </trkpt>
      <trkpt lat="45.83378" lon="6.14211">
        <ele>591</ele>
        <time>2017-04-11T15:36:05Z</time>
      </trkpt>
      <trkpt lat="45.83318" lon="6.14187">
        <ele>596</ele>
        <time>2017-04-11T15:36:20Z</time>
      </trkpt>
      <trkpt lat="45.83299" lon="6.14179">
        <ele>598</ele>
        <time>2017-04-11T15:36:25Z</time>
      </trkpt>
      <trkpt lat="45.83282" lon="6.14166">
        <ele>601</ele>
        <time>2017-04-11T15:36:30Z</time>
      </trkpt>
      <trkpt lat="45.83248" lon="6.14136">
        <ele>606</ele>
        <time>2017-04-11T15:36:40Z</time>
      </trkpt>
      <trkpt lat="45.83214" lon="6.14107">
        <ele>610</ele>
        <time>2017-04-11T15:36:50Z</time>
      </trkpt>
      <trkpt lat="45.83196" lon="6.14096">
        <ele>612</ele>
        <time>2017-04-11T15:36:55Z</time>
      </trkpt>
      <trkpt lat="45.83178" lon="6.14092">
        <ele>612</ele>
        <time>2017-04-11T15:37:00Z</time>
      </trkpt>
      <trkpt lat="45.83158" lon="6.14098">
        <ele>610</ele>
        <time>2017-04-11T15:37:05Z</time>
      </trkpt>
      <trkpt lat="45.8312" lon="6.14118">
        <ele>604</ele>
        <time>2017-04-11T15:37:15Z</time>
      </trkpt>
      <trkpt lat="45.831" lon="6.14121">
        <ele>603</ele>
        <time>2017-04-11T15:37:20Z</time>
      </trkpt>
      <trkpt lat="45.83079" lon="6.14119">
        <ele>603</ele>
        <time>2017-04-11T15:37:25Z</time>
      </trkpt>
      <trkpt lat="45.83058" lon="6.14116">
        <ele>603</ele>
        <time>2017-04-11T15:37:30Z</time>
      </trkpt>
      <trkpt lat="45.83039" lon="6.1411">
        <ele>604</ele>
        <time>2017-04-11T15:37:35Z</time>
      </trkpt>
      <trkpt lat="45.8302" lon="6.14101">
        <ele>606</ele>
        <time>2017-04-11T15:37:40Z</time>
      </trkpt>
      <trkpt lat="45.83004" lon="6.14088">
        <ele>608</ele>
        <time>2017-04-11T15:37:45Z</time>
      </trkpt>
      <trkpt lat="45.82968" lon="6.14058">
        <ele>614</ele>
        <time>2017-04-11T15:37:55Z</time>
      </trkpt>
      <trkpt lat="45.82949" lon="6.14062">
        <ele>615</ele>
        <time>2017-04-11T15:38:00Z</time>
      </trkpt>
      <trkpt lat="45.82941" lon="6.14086">
        <ele>614</ele>
        <time>2017-04-11T15:38:05Z</time>
      </trkpt>
      <trkpt lat="45.82936" lon="6.14141">
        <ele>611</ele>
        <time>2017-04-11T15:38:15Z</time>
      </trkpt>
      <trkpt lat="45.82926" lon="6.14162">
        <ele>611</ele>
        <time>2017-04-11T15:38:20Z</time>
      </trkpt>
      <trkpt lat="45.82888" lon="6.142">
        <ele>615</ele>
        <time>2017-04-11T15:38:30Z</time>
      </trkpt>
      <trkpt lat="45.82866" lon="6.14212">
        <ele>617</ele>
        <time>2017-04-11T15:38:35Z</time>
      </trkpt>
      <trkpt lat="45.82844" lon="6.14217">
        <ele>620</ele>
        <time>2017-04-11T15:38:40Z</time>
      </trkpt>
      <trkpt lat="45.82823" lon="6.14219">
        <ele>622</ele>
        <time>2017-04-11T15:38:45Z</time>
      </trkpt>
      <trkpt lat="45.82803" lon="6.14219">
        <ele>625</ele>
        <time>2017-04-11T15:38:50Z</time>
      </trkpt>
      <trkpt lat="45.82762" lon="6.14216">
        <ele>629</ele>
        <time>2017-04-11T15:39:00Z</time>
      </trkpt>
      <trkpt lat="45.82722" lon="6.14215">
        <ele>631</ele>
        <time>2017-04-11T15:39:10Z</time>
      </trkpt>
      <trkpt lat="45.82701" lon="6.14213">
        <ele>631</ele>
        <time>2017-04-11T15:39:15Z</time>
      </trkpt>
      <trkpt lat="45.82635" lon="6.1421">
        <ele>629</ele>
        <time>2017-04-11T15:39:30Z</time>
      </trkpt>
      <trkpt lat="45.82614" lon="6.14204">
        <ele>629</ele>
        <time>2017-04-11T15:39:35Z</time>
      </trkpt>
      <trkpt lat="45.82596" lon="6.14187">
        <ele>630</ele>
        <time>2017-04-11T15:39:40Z</time>
      </trkpt>
      <trkpt lat="45.82583" lon="6.14163">
        <ele>631</ele>
        <time>2017-04-11T15:39:45Z</time>
      </trkpt>
      <trkpt lat="45.82557" lon="6.14111">
        <ele>636</ele>
        <time>2017-04-11T15:39:55Z</time>
      </trkpt>
      <trkpt lat="45.82533" lon="6.1406">
        <ele>640</ele>
        <time>2017-04-11T15:40:05Z</time>
      </trkpt>
      <trkpt lat="45.8252" lon="6.14037">
        <ele>641</ele>
        <time>2017-04-11T15:40:10Z</time>
      </trkpt>
      <trkpt lat="45.82507" lon="6.14018">
        <ele>641</ele>
        <time>2017-04-11T15:40:15Z</time>
      </trkpt>
      <trkpt lat="45.82478" lon="6.1398">
        <ele>641</ele>
        <time>2017-04-11T15:40:25Z</time>
      </trkpt>
      <trkpt lat="45.82466" lon="6.13959">
        <ele>641</ele>
        <time>2017-04-11T15:40:30Z</time>
      </trkpt>
      <trkpt lat="45.82446" lon="6.13911">
        <ele>643</ele>
        <time>2017-04-11T15:40:40Z</time>
      </trkpt>
      <trkpt lat="45.82435" lon="6.13886">
        <ele>645</ele>
        <time>2017-04-11T15:40:45Z</time>
      </trkpt>
      <trkpt lat="45.82409" lon="6.13842">
        <ele>645</ele>
        <time>2017-04-11T15:40:55Z</time>
      </trkpt>
      <trkpt lat="45.82398" lon="6.13817">
        <ele>647</ele>
        <time>2017-04-11T15:41:00Z</time>
      </trkpt>
      <trkpt lat="45.82391" lon="6.1379">
        <ele>650</ele>
        <time>2017-04-11T15:41:05Z</time>
      </trkpt>
      <trkpt lat="45.82386" lon="6.13704">
        <ele>661</ele>
        <time>2017-04-11T15:41:20Z</time>
      </trkpt>
      <trkpt lat="45.82376" lon="6.1368">
        <ele>664</ele>
        <time>2017-04-11T15:41:25Z</time>
      </trkpt>
      <trkpt lat="45.8236" lon="6.13666">
        <ele>664</ele>
        <time>2017-04-11T15:41:30Z</time>
      </trkpt>
      <trkpt lat="45.8234" lon="6.13663">
        <ele>663</ele>
        <time>2017-04-11T15:41:35Z</time>
      </trkpt>
      <trkpt lat="45.8228" lon="6.13663">
        <ele>659</ele>
        <time>2017-04-11T15:41:50Z</time>
      </trkpt>
      <trkpt lat="45.82262" lon="6.13659">
        <ele>658</ele>
        <time>2017-04-11T15:41:55Z</time>
      </trkpt>
      <trkpt lat="45.82227" lon="6.1364">
        <ele>656</ele>
        <time>2017-04-11T15:42:05Z</time>
      </trkpt>
      <trkpt lat="45.82213" lon="6.13624">
        <ele>657</ele>
        <time>2017-04-11T15:42:10Z</time>
      </trkpt>
      <trkpt lat="45.82173" lon="6.13573">
        <ele>662</ele>
        <time>2017-04-11T15:42:25Z</time>
      </trkpt>
      <trkpt lat="45.8216" lon="6.13558">
        <ele>663</ele>
        <time>2017-04-11T15:42:30Z</time>
      </trkpt>
      <trkpt lat="45.82145" lon="6.13534">
        <ele>667</ele>
        <time>2017-04-11T15:42:35Z</time>
      </trkpt>
      <trkpt lat="45.82121" lon="6.13462">
        <ele>682</ele>
        <time>2017-04-11T15:42:50Z</time>
      </trkpt>
      <trkpt lat="45.82116" lon="6.13437">
        <ele>689</ele>
        <time>2017-04-11T15:42:55Z</time>
      </trkpt>
      <trkpt lat="45.82107" lon="6.13414">
        <ele>695</ele>
        <time>2017-04-11T15:43:00Z</time>
      </trkpt>
      <trkpt lat="45.82091" lon="6.13398">
        <ele>698</ele>
        <time>2017-04-11T15:43:05Z</time>
      </trkpt>
      <trkpt lat="45.82071" lon="6.13391">
        <ele>699</ele>
        <time>2017-04-11T15:43:10Z</time>
      </trkpt>
      <trkpt lat="45.82055" lon="6.13388">
        <ele>699</ele>
        <time>2017-04-11T15:43:15Z</time>
      </trkpt>
      <trkpt lat="45.82036" lon="6.13391">
        <ele>696</ele>
        <time>2017-04-11T15:43:20Z</time>
      </trkpt>
      <trkpt lat="45.82015" lon="6.13399">
        <ele>692</ele>
        <time>2017-04-11T15:43:25Z</time>
      </trkpt>
      <trkpt lat="45.81995" lon="6.13396">
        <ele>692</ele>
        <time>2017-04-11T15:43:30Z</time>
      </trkpt>
      <trkpt lat="45.81977" lon="6.13391">
        <ele>692</ele>
        <time>2017-04-11T15:43:35Z</time>
      </trkpt>
      <trkpt lat="45.81961" lon="6.1338">
        <ele>694</ele>
        <time>2017-04-11T15:43:40Z</time>
      </trkpt>
      <trkpt lat="45.8194" lon="6.13371">
        <ele>696</ele>
        <time>2017-04-11T15:43:45Z</time>
      </trkpt>
      <trkpt lat="45.81898" lon="6.13353">
        <ele>700</ele>
        <time>2017-04-11T15:43:55Z</time>
      </trkpt>
      <trkpt lat="45.81876" lon="6.13345">
        <ele>701</ele>
        <time>2017-04-11T15:44:00Z</time>
      </trkpt>
      <trkpt lat="45.81854" lon="6.13345">
        <ele>701</ele>
        <time>2017-04-11T15:44:05Z</time>
      </trkpt>
      <trkpt lat="45.81835" lon="6.1335">
        <ele>701</ele>
        <time>2017-04-11T15:44:10Z</time>
      </trkpt>
      <trkpt lat="45.81821" lon="6.13363">
        <ele>697</ele>
        <time>2017-04-11T15:44:15Z</time>
      </trkpt>
      <trkpt lat="45.81811" lon="6.13385">
        <ele>693</ele>
        <time>2017-04-11T15:44:20Z</time>
      </trkpt>
      <trkpt lat="45.81802" lon="6.13412">
        <ele>690</ele>
        <time>2017-04-11T15:44:25Z</time>
      </trkpt>
      <trkpt lat="45.81795" lon="6.13439">
        <ele>686</ele>
        <time>2017-04-11T15:44:30Z</time>
      </trkpt>
      <trkpt lat="45.81783" lon="6.13499">
        <ele>681</ele>
        <time>2017-04-11T15:44:40Z</time>
      </trkpt>
      <trkpt lat="45.81776" lon="6.13527">
        <ele>680</ele>
        <time>2017-04-11T15:44:45Z</time>
      </trkpt>
      <trkpt lat="45.81752" lon="6.13575">
        <ele>679</ele>
        <time>2017-04-11T15:44:55Z</time>
      </trkpt>
      <trkpt lat="45.81738" lon="6.13591">
        <ele>680</ele>
        <time>2017-04-11T15:45:00Z</time>
      </trkpt>
      <trkpt lat="45.81704" lon="6.13625">
        <ele>682</ele>
        <time>2017-04-11T15:45:10Z</time>
      </trkpt>
      <trkpt lat="45.81676" lon="6.13658">
        <ele>683</ele>
        <time>2017-04-11T15:45:20Z</time>
      </trkpt>
      <trkpt lat="45.81661" lon="6.13674">
        <ele>683</ele>
        <time>2017-04-11T15:45:25Z</time>
      </trkpt>
      <trkpt lat="45.81646" lon="6.13686">
        <ele>683</ele>
        <time>2017-04-11T15:45:30Z</time>
      </trkpt>
      <trkpt lat="45.81613" lon="6.13708">
        <ele>684</ele>
        <time>2017-04-11T15:45:40Z</time>
      </trkpt>
      <trkpt lat="45.81564" lon="6.1374">
        <ele>682</ele>
        <time>2017-04-11T15:45:55Z</time>
      </trkpt>
      <trkpt lat="45.81521" lon="6.13768">
        <ele>678</ele>
        <time>2017-04-11T15:46:05Z</time>
      </trkpt>
      <trkpt lat="45.81499" lon="6.13776">
        <ele>677</ele>
        <time>2017-04-11T15:46:10Z</time>
      </trkpt>
      <trkpt lat="45.81477" lon="6.13778">
        <ele>677</ele>
        <time>2017-04-11T15:46:15Z</time>
      </trkpt>
      <trkpt lat="45.81457" lon="6.13776">
        <ele>678</ele>
        <time>2017-04-11T15:46:20Z</time>
      </trkpt>
      <trkpt lat="45.81417" lon="6.13771">
        <ele>680</ele>
        <time>2017-04-11T15:46:30Z</time>
      </trkpt>
      <trkpt lat="45.81375" lon="6.13773">
        <ele>681</ele>
        <time>2017-04-11T15:46:40Z</time>
      </trkpt>
      <trkpt lat="45.81354" lon="6.13774">
        <ele>681</ele>
        <time>2017-04-11T15:46:45Z</time>
      </trkpt>
      <trkpt lat="45.81332" lon="6.13767">
        <ele>684</ele>
        <time>2017-04-11T15:46:50Z</time>
      </trkpt>
      <trkpt lat="45.813" lon="6.13736">
        <ele>693</ele>
        <time>2017-04-11T15:47:00Z</time>
      </trkpt>
      <trkpt lat="45.81282" lon="6.13725">
        <ele>696</ele>
        <time>2017-04-11T15:47:05Z</time>
      </trkpt>
      <trkpt lat="45.81263" lon="6.1372">
        <ele>699</ele>
        <time>2017-04-11T15:47:10Z</time>
      </trkpt>
      <trkpt lat="45.81227" lon="6.13708">
        <ele>704</ele>
        <time>2017-04-11T15:47:20Z</time>
      </trkpt>
      <trkpt lat="45.81208" lon="6.13704">
        <ele>705</ele>
        <time>2017-04-11T15:47:25Z</time>
      </trkpt>
      <trkpt lat="45.8117" lon="6.13687">
        <ele>711</ele>
        <time>2017-04-11T15:47:35Z</time>
      </trkpt>
      <trkpt lat="45.81134" lon="6.1368">
        <ele>713</ele>
        <time>2017-04-11T15:47:45Z</time>
      </trkpt>
      <trkpt lat="45.81072" lon="6.13676">
        <ele>715</ele>
        <time>2017-04-11T15:48:00Z</time>
      </trkpt>
      <trkpt lat="45.81041" lon="6.13679">
        <ele>715</ele>
        <time>2017-04-11T15:48:05Z</time>
      </trkpt>
      <trkpt lat="45.81016" lon="6.13674">
        <ele>717</ele>
        <time>2017-04-11T15:48:10Z</time>
      </trkpt>
      <trkpt lat="45.80969" lon="6.13682">
        <ele>715</ele>
        <time>2017-04-11T15:48:20Z</time>
      </trkpt>
      <trkpt lat="45.80949" lon="6.13673">
        <ele>717</ele>
        <time>2017-04-11T15:48:25Z</time>
      </trkpt>
      <trkpt lat="45.80904" lon="6.13671">
        <ele>716</ele>
        <time>2017-04-11T15:48:35Z</time>
      </trkpt>
      <trkpt lat="45.80882" lon="6.13664">
        <ele>717</ele>
        <time>2017-04-11T15:48:40Z</time>
      </trkpt>
      <trkpt lat="45.80847" lon="6.13638">
        <ele>722</ele>
        <time>2017-04-11T15:48:50Z</time>
      </trkpt>
      <trkpt lat="45.80796" lon="6.13621">
        <ele>724</ele>
        <time>2017-04-11T15:49:05Z</time>
      </trkpt>
      <trkpt lat="45.80777" lon="6.13617">
        <ele>724</ele>
        <time>2017-04-11T15:49:10Z</time>
      </trkpt>
      <trkpt lat="45.80758" lon="6.13607">
        <ele>727</ele>
        <time>2017-04-11T15:49:15Z</time>
      </trkpt>
      <trkpt lat="45.80744" lon="6.13586">
        <ele>733</ele>
        <time>2017-04-11T15:49:20Z</time>
      </trkpt>
      <trkpt lat="45.80728" lon="6.1357">
        <ele>738</ele>
        <time>2017-04-11T15:49:25Z</time>
      </trkpt>
      <trkpt lat="45.80698" lon="6.1355">
        <ele>744</ele>
        <time>2017-04-11T15:49:35Z</time>
      </trkpt>
      <trkpt lat="45.80682" lon="6.13544">
        <ele>746</ele>
        <time>2017-04-11T15:49:40Z</time>
      </trkpt>
      <trkpt lat="45.8065" lon="6.13554">
        <ele>746</ele>
        <time>2017-04-11T15:49:50Z</time>
      </trkpt>
      <trkpt lat="45.80636" lon="6.13557">
        <ele>746</ele>
        <time>2017-04-11T15:49:55Z</time>
      </trkpt>
      <trkpt lat="45.80587" lon="6.13538">
        <ele>754</ele>
        <time>2017-04-11T15:50:10Z</time>
      </trkpt>
      <trkpt lat="45.80573" lon="6.13535">
        <ele>756</ele>
        <time>2017-04-11T15:50:15Z</time>
      </trkpt>
      <trkpt lat="45.80554" lon="6.13541">
        <ele>756</ele>
        <time>2017-04-11T15:50:20Z</time>
      </trkpt>
      <trkpt lat="45.80517" lon="6.13559">
        <ele>755</ele>
        <time>2017-04-11T15:50:30Z</time>
      </trkpt>
      <trkpt lat="45.805" lon="6.13565">
        <ele>755</ele>
        <time>2017-04-11T15:50:35Z</time>
      </trkpt>
      <trkpt lat="45.80482" lon="6.13577">
        <ele>754</ele>
        <time>2017-04-11T15:50:40Z</time>
      </trkpt>
      <trkpt lat="45.80465" lon="6.13581">
        <ele>755</ele>
        <time>2017-04-11T15:50:45Z</time>
      </trkpt>
      <trkpt lat="45.80432" lon="6.13578">
        <ele>760</ele>
        <time>2017-04-11T15:50:55Z</time>
      </trkpt>
      <trkpt lat="45.80422" lon="6.13586">
        <ele>760</ele>
        <time>2017-04-11T15:51:00Z</time>
      </trkpt>
      <trkpt lat="45.80398" lon="6.13625">
        <ele>759</ele>
        <time>2017-04-11T15:51:10Z</time>
      </trkpt>
      <trkpt lat="45.80376" lon="6.13659">
        <ele>759</ele>
        <time>2017-04-11T15:51:20Z</time>
      </trkpt>
      <trkpt lat="45.8035" lon="6.13687">
        <ele>761</ele>
        <time>2017-04-11T15:51:30Z</time>
      </trkpt>
      <trkpt lat="45.80339" lon="6.13702">
        <ele>762</ele>
        <time>2017-04-11T15:51:35Z</time>
      </trkpt>
      <trkpt lat="45.80326" lon="6.13729">
        <ele>761</ele>
        <time>2017-04-11T15:51:40Z</time>
      </trkpt>
      <trkpt lat="45.80303" lon="6.13766">
        <ele>760</ele>
        <time>2017-04-11T15:51:50Z</time>
      </trkpt>
      <trkpt lat="45.80278" lon="6.13798">
        <ele>759</ele>
        <time>2017-04-11T15:52:00Z</time>
      </trkpt>
      <trkpt lat="45.80264" lon="6.13811">
        <ele>758</ele>
        <time>2017-04-11T15:52:05Z</time>
      </trkpt>
      <trkpt lat="45.8025" lon="6.13821">
        <ele>758</ele>
        <time>2017-04-11T15:52:10Z</time>
      </trkpt>
      <trkpt lat="45.8022" lon="6.13834">
        <ele>758</ele>
        <time>2017-04-11T15:52:20Z</time>
      </trkpt>
      <trkpt lat="45.8019" lon="6.13839">
        <ele>759</ele>
        <time>2017-04-11T15:52:30Z</time>
      </trkpt>
      <trkpt lat="45.80177" lon="6.13837">
        <ele>760</ele>
        <time>2017-04-11T15:52:35Z</time>
      </trkpt>
      <trkpt lat="45.80164" lon="6.13833">
        <ele>761</ele>
        <time>2017-04-11T15:52:40Z</time>
      </trkpt>
      <trkpt lat="45.80137" lon="6.13823">
        <ele>764</ele>
        <time>2017-04-11T15:52:50Z</time>
      </trkpt>
      <trkpt lat="45.80123" lon="6.13814">
        <ele>765</ele>
        <time>2017-04-11T15:52:55Z</time>
      </trkpt>
      <trkpt lat="45.8011" lon="6.13803">
        <ele>767</ele>
        <time>2017-04-11T15:53:00Z</time>
      </trkpt>
      <trkpt lat="45.80104" lon="6.13787">
        <ele>770</ele>
        <time>2017-04-11T15:53:05Z</time>
      </trkpt>
      <trkpt lat="45.80081" lon="6.13751">
        <ele>776</ele>
        <time>2017-04-11T15:53:20Z</time>
      </trkpt>
      <trkpt lat="45.80069" lon="6.13743">
        <ele>778</ele>
        <time>2017-04-11T15:53:25Z</time>
      </trkpt>
      <trkpt lat="45.80056" lon="6.13746">
        <ele>778</ele>
        <time>2017-04-11T15:53:30Z</time>
      </trkpt>
      <trkpt lat="45.80036" lon="6.1378">
        <ele>773</ele>
        <time>2017-04-11T15:53:40Z</time>
      </trkpt>
      <trkpt lat="45.80026" lon="6.13795">
        <ele>770</ele>
        <time>2017-04-11T15:53:45Z</time>
      </trkpt>
      <trkpt lat="45.80012" lon="6.13804">
        <ele>769</ele>
        <time>2017-04-11T15:53:50Z</time>
      </trkpt>
      <trkpt lat="45.79998" lon="6.13806">
        <ele>769</ele>
        <time>2017-04-11T15:53:55Z</time>
      </trkpt>
      <trkpt lat="45.7997" lon="6.13807">
        <ele>771</ele>
        <time>2017-04-11T15:54:05Z</time>
      </trkpt>
      <trkpt lat="45.79958" lon="6.13803">
        <ele>773</ele>
        <time>2017-04-11T15:54:10Z</time>
      </trkpt>
      <trkpt lat="45.79943" lon="6.13791">
        <ele>777</ele>
        <time>2017-04-11T15:54:15Z</time>
      </trkpt>
      <trkpt lat="45.79924" lon="6.13757">
        <ele>786</ele>
        <time>2017-04-11T15:54:25Z</time>
      </trkpt>
      <trkpt lat="45.79912" lon="6.13743">
        <ele>791</ele>
        <time>2017-04-11T15:54:30Z</time>
      </trkpt>
      <trkpt lat="45.79899" lon="6.13744">
        <ele>792</ele>
        <time>2017-04-11T15:54:35Z</time>
      </trkpt>
      <trkpt lat="45.79862" lon="6.1377">
        <ele>790</ele>
        <time>2017-04-11T15:54:50Z</time>
      </trkpt>
      <trkpt lat="45.79839" lon="6.13764">
        <ele>792</ele>
        <time>2017-04-11T15:55:00Z</time>
      </trkpt>
      <trkpt lat="45.79826" lon="6.13758">
        <ele>794</ele>
        <time>2017-04-11T15:55:05Z</time>
      </trkpt>
      <trkpt lat="45.79818" lon="6.13744">
        <ele>797</ele>
        <time>2017-04-11T15:55:10Z</time>
      </trkpt>
      <trkpt lat="45.79812" lon="6.13726">
        <ele>802</ele>
        <time>2017-04-11T15:55:15Z</time>
      </trkpt>
      <trkpt lat="45.79793" lon="6.13702">
        <ele>808</ele>
        <time>2017-04-11T15:55:25Z</time>
      </trkpt>
      <trkpt lat="45.79778" lon="6.13699">
        <ele>808</ele>
        <time>2017-04-11T15:55:30Z</time>
      </trkpt>
      <trkpt lat="45.79764" lon="6.13701">
        <ele>808</ele>
        <time>2017-04-11T15:55:35Z</time>
      </trkpt>
      <trkpt lat="45.79726" lon="6.13734">
        <ele>800</ele>
        <time>2017-04-11T15:55:50Z</time>
      </trkpt>
      <trkpt lat="45.79691" lon="6.13741">
        <ele>798</ele>
        <time>2017-04-11T15:56:00Z</time>
      </trkpt>
      <trkpt lat="45.7968" lon="6.1373">
        <ele>801</ele>
        <time>2017-04-11T15:56:05Z</time>
      </trkpt>
      <trkpt lat="45.79671" lon="6.13694">
        <ele>808</ele>
        <time>2017-04-11T15:56:15Z</time>
      </trkpt>
      <trkpt lat="45.79664" lon="6.13677">
        <ele>812</ele>
        <time>2017-04-11T15:56:20Z</time>
      </trkpt>
      <trkpt lat="45.79652" lon="6.13666">
        <ele>814</ele>
        <time>2017-04-11T15:56:25Z</time>
      </trkpt>
      <trkpt lat="45.79639" lon="6.13667">
        <ele>814</ele>
        <time>2017-04-11T15:56:30Z</time>
      </trkpt>
      <trkpt lat="45.79608" lon="6.13687">
        <ele>809</ele>
        <time>2017-04-11T15:56:40Z</time>
      </trkpt>
      <trkpt lat="45.79592" lon="6.13687">
        <ele>809</ele>
        <time>2017-04-11T15:56:45Z</time>
      </trkpt>
      <trkpt lat="45.79581" lon="6.13678">
        <ele>811</ele>
        <time>2017-04-11T15:56:50Z</time>
      </trkpt>
      <trkpt lat="45.79557" lon="6.13627">
        <ele>823</ele>
        <time>2017-04-11T15:57:05Z</time>
      </trkpt>
      <trkpt lat="45.79544" lon="6.13615">
        <ele>827</ele>
        <time>2017-04-11T15:57:10Z</time>
      </trkpt>
      <trkpt lat="45.7953" lon="6.13613">
        <ele>828</ele>
        <time>2017-04-11T15:57:15Z</time>
      </trkpt>
      <trkpt lat="45.79518" lon="6.13617">
        <ele>828</ele>
        <time>2017-04-11T15:57:20Z</time>
      </trkpt>
      <trkpt lat="45.79493" lon="6.13632">
        <ele>827</ele>
        <time>2017-04-11T15:57:30Z</time>
      </trkpt>
      <trkpt lat="45.79482" lon="6.13641">
        <ele>826</ele>
        <time>2017-04-11T15:57:35Z</time>
      </trkpt>
      <trkpt lat="45.79462" lon="6.13667">
        <ele>824</ele>
        <time>2017-04-11T15:57:45Z</time>
      </trkpt>
      <trkpt lat="45.79447" lon="6.1368">
        <ele>823</ele>
        <time>2017-04-11T15:57:50Z</time>
      </trkpt>
      <trkpt lat="45.7942" lon="6.1369">
        <ele>823</ele>
        <time>2017-04-11T15:58:00Z</time>
      </trkpt>
      <trkpt lat="45.79403" lon="6.13684">
        <ele>825</ele>
        <time>2017-04-11T15:58:05Z</time>
      </trkpt>
      <trkpt lat="45.79368" lon="6.13669">
        <ele>828</ele>
        <time>2017-04-11T15:58:15Z</time>
      </trkpt>
      <trkpt lat="45.79334" lon="6.13654">
        <ele>830</ele>
        <time>2017-04-11T15:58:25Z</time>
      </trkpt>
      <trkpt lat="45.79317" lon="6.13647">
        <ele>830</ele>
        <time>2017-04-11T15:58:30Z</time>
      </trkpt>
      <trkpt lat="45.79266" lon="6.13626">
        <ele>830</ele>
        <time>2017-04-11T15:58:45Z</time>
      </trkpt>
      <trkpt lat="45.79249" lon="6.13617">
        <ele>830</ele>
        <time>2017-04-11T15:58:50Z</time>
      </trkpt>
      <trkpt lat="45.79232" lon="6.13605">
        <ele>831</ele>
        <time>2017-04-11T15:58:55Z</time>
      </trkpt>
      <trkpt lat="45.79216" lon="6.13592">
        <ele>832</ele>
        <time>2017-04-11T15:59:00Z</time>
      </trkpt>
      <trkpt lat="45.79172" lon="6.13553">
        <ele>835</ele>
        <time>2017-04-11T15:59:15Z</time>
      </trkpt>
      <trkpt lat="45.79143" lon="6.13528">
        <ele>838</ele>
        <time>2017-04-11T15:59:25Z</time>
      </trkpt>
      <trkpt lat="45.79127" lon="6.13519">
        <ele>839</ele>
        <time>2017-04-11T15:59:30Z</time>
      </trkpt>
      <trkpt lat="45.79111" lon="6.13519">
        <ele>838</ele>
        <time>2017-04-11T15:59:35Z</time>
      </trkpt>
      <trkpt lat="45.79097" lon="6.13531">
        <ele>835</ele>
        <time>2017-04-11T15:59:40Z</time>
      </trkpt>
      <trkpt lat="45.79071" lon="6.1356">
        <ele>830</ele>
        <time>2017-04-11T15:59:50Z</time>
      </trkpt>
      <trkpt lat="45.79054" lon="6.13565">
        <ele>828</ele>
        <time>2017-04-11T15:59:55Z</time>
      </trkpt>
      <trkpt lat="45.79036" lon="6.13563">
        <ele>828</ele>
        <time>2017-04-11T16:00:00Z</time>
      </trkpt>
      <trkpt lat="45.79018" lon="6.13558">
        <ele>828</ele>
        <time>2017-04-11T16:00:05Z</time>
      </trkpt>
      <trkpt lat="45.78983" lon="6.13547">
        <ele>828</ele>
        <time>2017-04-11T16:00:15Z</time>
      </trkpt>
      <trkpt lat="45.78965" lon="6.13539">
        <ele>828</ele>
        <time>2017-04-11T16:00:20Z</time>
      </trkpt>
      <trkpt lat="45.78925" lon="6.13514">
        <ele>829</ele>
        <time>2017-04-11T16:00:30Z</time>
      </trkpt>
      <trkpt lat="45.78901" lon="6.13499">
        <ele>829</ele>
        <time>2017-04-11T16:00:35Z</time>
      </trkpt>
      <trkpt lat="45.78879" lon="6.13468">
        <ele>831</ele>
        <time>2017-04-11T16:00:40Z</time>
      </trkpt>
      <trkpt lat="45.78873" lon="6.13429">
        <ele>837</ele>
        <time>2017-04-11T16:00:45Z</time>
      </trkpt>
      <trkpt lat="45.78865" lon="6.13394">
        <ele>842</ele>
        <time>2017-04-11T16:00:50Z</time>
      </trkpt>
      <trkpt lat="45.78847" lon="6.13369">
        <ele>845</ele>
        <time>2017-04-11T16:00:55Z</time>
      </trkpt>
      <trkpt lat="45.78825" lon="6.13352">
        <ele>847</ele>
        <time>2017-04-11T16:01:00Z</time>
      </trkpt>
      <trkpt lat="45.788" lon="6.13352">
        <ele>847</ele>
        <time>2017-04-11T16:01:05Z</time>
      </trkpt>
      <trkpt lat="45.78776" lon="6.13365">
        <ele>844</ele>
        <time>2017-04-11T16:01:10Z</time>
      </trkpt>
      <trkpt lat="45.7875" lon="6.13368">
        <ele>843</ele>
        <time>2017-04-11T16:01:15Z</time>
      </trkpt>
      <trkpt lat="45.78696" lon="6.13363">
        <ele>843</ele>
        <time>2017-04-11T16:01:25Z</time>
      </trkpt>
      <trkpt lat="45.7867" lon="6.13359">
        <ele>844</ele>
        <time>2017-04-11T16:01:30Z</time>
      </trkpt>
      <trkpt lat="45.78621" lon="6.13348">
        <ele>845</ele>
        <time>2017-04-11T16:01:40Z</time>
      </trkpt>
      <trkpt lat="45.78597" lon="6.13334">
        <ele>847</ele>
        <time>2017-04-11T16:01:45Z</time>
      </trkpt>
      <trkpt lat="45.78574" lon="6.13316">
        <ele>850</ele>
        <time>2017-04-11T16:01:50Z</time>
      </trkpt>
      <trkpt lat="45.78552" lon="6.13297">
        <ele>853</ele>
        <time>2017-04-11T16:01:55Z</time>
      </trkpt>
      <trkpt lat="45.78489" lon="6.13248">
        <ele>860</ele>
        <time>2017-04-11T16:02:10Z</time>
      </trkpt>
      <trkpt lat="45.78469" lon="6.13237">
        <ele>862</ele>
        <time>2017-04-11T16:02:15Z</time>
      </trkpt>
      <trkpt lat="45.78448" lon="6.13235">
        <ele>862</ele>
        <time>2017-04-11T16:02:20Z</time>
      </trkpt>
      <trkpt lat="45.784" lon="6.13246">
        <ele>859</ele>
        <time>2017-04-11T16:02:30Z</time>
      </trkpt>
      <trkpt lat="45.78374" lon="6.13244">
        <ele>859</ele>
        <time>2017-04-11T16:02:35Z</time>
      </trkpt>
      <trkpt lat="45.7833" lon="6.13222">
        <ele>863</ele>
        <time>2017-04-11T16:02:45Z</time>
      </trkpt>
      <trkpt lat="45.78308" lon="6.13216">
        <ele>864</ele>
        <time>2017-04-11T16:02:50Z</time>
      </trkpt>
      <trkpt lat="45.78228" lon="6.13208">
        <ele>864</ele>
        <time>2017-04-11T16:03:05Z</time>
      </trkpt>
      <trkpt lat="45.78201" lon="6.13202">
        <ele>864</ele>
        <time>2017-04-11T16:03:10Z</time>
      </trkpt>
      <trkpt lat="45.78176" lon="6.13191">
        <ele>865</ele>
        <time>2017-04-11T16:03:15Z</time>
      </trkpt>
      <trkpt lat="45.78151" lon="6.13178">
        <ele>866</ele>
        <time>2017-04-11T16:03:20Z</time>
      </trkpt>
      <trkpt lat="45.7807" lon="6.13113">
        <ele>872</ele>
        <time>2017-04-11T16:03:40Z</time>
      </trkpt>
      <trkpt lat="45.78024" lon="6.13089">
        <ele>876</ele>
        <time>2017-04-11T16:03:50Z</time>
      </trkpt>
      <trkpt lat="45.78" lon="6.13091">
        <ele>876</ele>
        <time>2017-04-11T16:03:55Z</time>
      </trkpt>
      <trkpt lat="45.7798" lon="6.13114">
        <ele>875</ele>
        <time>2017-04-11T16:04:00Z</time>
      </trkpt>
      <trkpt lat="45.77956" lon="6.13176">
        <ele>870</ele>
        <time>2017-04-11T16:04:10Z</time>
      </trkpt>
      <trkpt lat="45.77942" lon="6.13202">
        <ele>869</ele>
        <time>2017-04-11T16:04:15Z</time>
      </trkpt>
      <trkpt lat="45.77926" lon="6.13219">
        <ele>868</ele>
        <time>2017-04-11T16:04:20Z</time>
      </trkpt>
      <trkpt lat="45.77874" lon="6.13262">
        <ele>869</ele>
        <time>2017-04-11T16:04:35Z</time>
      </trkpt>
      <trkpt lat="45.77856" lon="6.13268">
        <ele>870</ele>
        <time>2017-04-11T16:04:40Z</time>
      </trkpt>
      <trkpt lat="45.77835" lon="6.13264">
        <ele>872</ele>
        <time>2017-04-11T16:04:45Z</time>
      </trkpt>
      <trkpt lat="45.77794" lon="6.13252">
        <ele>876</ele>
        <time>2017-04-11T16:04:55Z</time>
      </trkpt>
      <trkpt lat="45.77775" lon="6.13246">
        <ele>877</ele>
        <time>2017-04-11T16:05:00Z</time>
      </trkpt>
      <trkpt lat="45.77756" lon="6.13244">
        <ele>879</ele>
        <time>2017-04-11T16:05:05Z</time>
      </trkpt>
      <trkpt lat="45.77719" lon="6.13263">
        <ele>877</ele>
        <time>2017-04-11T16:05:15Z</time>
      </trkpt>
      <trkpt lat="45.77699" lon="6.13272">
        <ele>876</ele>
        <time>2017-04-11T16:05:20Z</time>
      </trkpt>
      <trkpt lat="45.77662" lon="6.13276">
        <ele>876</ele>
        <time>2017-04-11T16:05:30Z</time>
      </trkpt>
      <trkpt lat="45.77645" lon="6.13275">
        <ele>876</ele>
        <time>2017-04-11T16:05:35Z</time>
      </trkpt>
      <trkpt lat="45.77593" lon="6.13268">
        <ele>878</ele>
        <time>2017-04-11T16:05:50Z</time>
      </trkpt>
      <trkpt lat="45.77574" lon="6.13273">
        <ele>878</ele>
        <time>2017-04-11T16:05:55Z</time>
      </trkpt>
      <trkpt lat="45.77536" lon="6.13289">
        <ele>877</ele>
        <time>2017-04-11T16:06:05Z</time>
      </trkpt>
      <trkpt lat="45.77517" lon="6.13285">
        <ele>878</ele>
        <time>2017-04-11T16:06:10Z</time>
      </trkpt>
      <trkpt lat="45.77485" lon="6.13262">
        <ele>883</ele>
        <time>2017-04-11T16:06:20Z</time>
      </trkpt>
      <trkpt lat="45.77467" lon="6.13256">
        <ele>885</ele>
        <time>2017-04-11T16:06:25Z</time>
      </trkpt>
      <trkpt lat="45.77447" lon="6.13258">
        <ele>886</ele>
        <time>2017-04-11T16:06:30Z</time>
      </trkpt>
      <trkpt lat="45.77415" lon="6.13286">
        <ele>885</ele>
        <time>2017-04-11T16:06:40Z</time>
      </trkpt>
      <trkpt lat="45.77396" lon="6.13298">
        <ele>885</ele>
        <time>2017-04-11T16:06:45Z</time>
      </trkpt>
      <trkpt lat="45.77377" lon="6.13298">
        <ele>887</ele>
        <time>2017-04-11T16:06:50Z</time>
      </trkpt>
      <trkpt lat="45.7736" lon="6.13287">
        <ele>889</ele>
        <time>2017-04-11T16:06:55Z</time>
      </trkpt>
      <trkpt lat="45.77343" lon="6.13274">
        <ele>891</ele>
        <time>2017-04-11T16:07:00Z</time>
      </trkpt>
      <trkpt lat="45.77287" lon="6.13225">
        <ele>895</ele>
        <time>2017-04-11T16:07:15Z</time>
      </trkpt>
      <trkpt lat="45.77269" lon="6.13211">
        <ele>896</ele>
        <time>2017-04-11T16:07:20Z</time>
      </trkpt>
      <trkpt lat="45.77231" lon="6.13192">
        <ele>895</ele>
        <time>2017-04-11T16:07:30Z</time>
      </trkpt>
      <trkpt lat="45.77212" lon="6.13181">
        <ele>894</ele>
        <time>2017-04-11T16:07:35Z</time>
      </trkpt>
      <trkpt lat="45.77195" lon="6.13167">
        <ele>893</ele>
        <time>2017-04-11T16:07:40Z</time>
      </trkpt>
      <trkpt lat="45.77191" lon="6.13159">
        <ele>893</ele>
        <time>2017-04-11T16:07:50Z</time>
      </trkpt>
      <trkpt lat="45.77192" lon="6.13159">
        <ele>893</ele>
        <time>2017-04-11T16:07:55Z</time>
      </trkpt>
      <trkpt lat="45.77192" lon="6.13159">
        <ele>893</ele>
        <time>2017-04-11T16:08:00Z</time>
      </trkpt>
      <trkpt lat="45.77191" lon="6.13159">
        <ele>893</ele>
        <time>2017-04-11T16:08:10Z</time>
      </trkpt>
      <trkpt lat="45.77192" lon="6.13158">
        <ele>893</ele>
        <time>2017-04-11T16:08:15Z</time>
      </trkpt>
      <trkpt lat="45.77193" lon="6.13158">
        <ele>893</ele>
        <time>2017-04-11T16:08:25Z</time>
      </trkpt>
      <trkpt lat="45.77193" lon="6.13157">
        <ele>893</ele>
        <time>2017-04-11T16:08:30Z</time>
      </trkpt>
      <trkpt lat="45.77193" lon="6.13156">
        <ele>893</ele>
        <time>2017-04-11T16:08:45Z</time>
      </trkpt>
      <trkpt lat="45.77193" lon="6.13155">
        <ele>893</ele>
        <time>2017-04-11T16:08:55Z</time>
      </trkpt>
      <trkpt lat="45.77191" lon="6.13152">
        <ele>893</ele>
        <time>2017-04-11T16:09:00Z</time>
      </trkpt>
      <trkpt lat="45.77188" lon="6.1315">
        <ele>893</ele>
        <time>2017-04-11T16:09:05Z</time>
      </trkpt>
      <trkpt lat="45.77188" lon="6.13149">
        <ele>893</ele>
        <time>2017-04-11T16:09:20Z</time>
      </trkpt>
      <trkpt lat="45.77188" lon="6.13149">
        <ele>893</ele>
        <time>2017-04-11T16:09:30Z</time>
      </trkpt>
      <trkpt lat="45.77188" lon="6.13148">
        <ele>893</ele>
        <time>2017-04-11T16:09:35Z</time>
      </trkpt>
      <trkpt lat="45.77188" lon="6.13148">
        <ele>893</ele>
        <time>2017-04-11T16:09:40Z</time>
      </trkpt>
      <trkpt lat="45.77186" lon="6.13151">
        <ele>893</ele>
        <time>2017-04-11T16:09:45Z</time>
      </trkpt>
      <trkpt lat="45.77182" lon="6.13178">
        <ele>893</ele>
        <time>2017-04-11T16:09:55Z</time>
      </trkpt>
      <trkpt lat="45.77174" lon="6.13203">
        <ele>894</ele>
        <time>2017-04-11T16:10:00Z</time>
      </trkpt>
      <trkpt lat="45.77159" lon="6.13257">
        <ele>896</ele>
        <time>2017-04-11T16:10:10Z</time>
      </trkpt>
      <trkpt lat="45.7715" lon="6.13285">
        <ele>897</ele>
        <time>2017-04-11T16:10:15Z</time>
      </trkpt>
      <trkpt lat="45.77137" lon="6.13307">
        <ele>898</ele>
        <time>2017-04-11T16:10:20Z</time>
      </trkpt>
      <trkpt lat="45.77123" lon="6.13322">
        <ele>899</ele>
        <time>2017-04-11T16:10:25Z</time>
      </trkpt>
      <trkpt lat="45.7711" lon="6.13334">
        <ele>900</ele>
        <time>2017-04-11T16:10:30Z</time>
      </trkpt>
      <trkpt lat="45.77085" lon="6.13354">
        <ele>902</ele>
        <time>2017-04-11T16:10:40Z</time>
      </trkpt>
      <trkpt lat="45.77074" lon="6.13357">
        <ele>903</ele>
        <time>2017-04-11T16:10:45Z</time>
      </trkpt>
      <trkpt lat="45.77039" lon="6.13353">
        <ele>903</ele>
        <time>2017-04-11T16:11:00Z</time>
      </trkpt>
      <trkpt lat="45.77027" lon="6.13354">
        <ele>903</ele>
        <time>2017-04-11T16:11:05Z</time>
      </trkpt>
      <trkpt lat="45.77007" lon="6.13368">
        <ele>905</ele>
        <time>2017-04-11T16:11:15Z</time>
      </trkpt>
      <trkpt lat="45.77002" lon="6.13381">
        <ele>907</ele>
        <time>2017-04-11T16:11:20Z</time>
      </trkpt>
      <trkpt lat="45.77003" lon="6.13394">
        <ele>908</ele>
        <time>2017-04-11T16:11:25Z</time>
      </trkpt>
      <trkpt lat="45.77009" lon="6.13403">
        <ele>909</ele>
        <time>2017-04-11T16:11:30Z</time>
      </trkpt>
      <trkpt lat="45.77038" lon="6.13425">
        <ele>912</ele>
        <time>2017-04-11T16:11:45Z</time>
      </trkpt>
      <trkpt lat="45.77047" lon="6.13436">
        <ele>913</ele>
        <time>2017-04-11T16:11:50Z</time>
      </trkpt>
      <trkpt lat="45.77045" lon="6.13452">
        <ele>915</ele>
        <time>2017-04-11T16:11:55Z</time>
      </trkpt>
      <trkpt lat="45.77034" lon="6.13483">
        <ele>918</ele>
        <time>2017-04-11T16:12:05Z</time>
      </trkpt>
      <trkpt lat="45.77028" lon="6.13499">
        <ele>919</ele>
        <time>2017-04-11T16:12:10Z</time>
      </trkpt>
      <trkpt lat="45.77011" lon="6.13534">
        <ele>922</ele>
        <time>2017-04-11T16:12:20Z</time>
      </trkpt>
      <trkpt lat="45.77002" lon="6.13548">
        <ele>923</ele>
        <time>2017-04-11T16:12:25Z</time>
      </trkpt>
      <trkpt lat="45.76981" lon="6.13576">
        <ele>925</ele>
        <time>2017-04-11T16:12:35Z</time>
      </trkpt>
      <trkpt lat="45.76947" lon="6.13617">
        <ele>928</ele>
        <time>2017-04-11T16:12:50Z</time>
      </trkpt>
      <trkpt lat="45.76939" lon="6.13634">
        <ele>930</ele>
        <time>2017-04-11T16:12:55Z</time>
      </trkpt>
      <trkpt lat="45.76933" lon="6.13653">
        <ele>931</ele>
        <time>2017-04-11T16:13:00Z</time>
      </trkpt>
      <trkpt lat="45.76919" lon="6.1371">
        <ele>935</ele>
        <time>2017-04-11T16:13:15Z</time>
      </trkpt>
      <trkpt lat="45.76915" lon="6.1373">
        <ele>936</ele>
        <time>2017-04-11T16:13:20Z</time>
      </trkpt>
      <trkpt lat="45.76915" lon="6.13751">
        <ele>937</ele>
        <time>2017-04-11T16:13:25Z</time>
      </trkpt>
      <trkpt lat="45.7692" lon="6.13772">
        <ele>938</ele>
        <time>2017-04-11T16:13:30Z</time>
      </trkpt>
      <trkpt lat="45.7694" lon="6.13831">
        <ele>941</ele>
        <time>2017-04-11T16:13:45Z</time>
      </trkpt>
      <trkpt lat="45.76952" lon="6.1392">
        <ele>945</ele>
        <time>2017-04-11T16:14:00Z</time>
      </trkpt>
      <trkpt lat="45.76958" lon="6.13955">
        <ele>947</ele>
        <time>2017-04-11T16:14:05Z</time>
      </trkpt>
      <trkpt lat="45.7697" lon="6.13992">
        <ele>949</ele>
        <time>2017-04-11T16:14:10Z</time>
      </trkpt>
      <trkpt lat="45.76985" lon="6.1403">
        <ele>950</ele>
        <time>2017-04-11T16:14:15Z</time>
      </trkpt>
      <trkpt lat="45.77006" lon="6.14115">
        <ele>954</ele>
        <time>2017-04-11T16:14:25Z</time>
      </trkpt>
      <trkpt lat="45.77041" lon="6.14121">
        <ele>952</ele>
        <time>2017-04-11T16:14:30Z</time>
      </trkpt>
      <trkpt lat="45.77109" lon="6.14079">
        <ele>941</ele>
        <time>2017-04-11T16:14:40Z</time>
      </trkpt>
      <trkpt lat="45.77145" lon="6.14076">
        <ele>938</ele>
        <time>2017-04-11T16:14:45Z</time>
      </trkpt>
      <trkpt lat="45.7717" lon="6.14114">
        <ele>940</ele>
        <time>2017-04-11T16:14:50Z</time>
      </trkpt>
      <trkpt lat="45.7718" lon="6.14166">
        <ele>943</ele>
        <time>2017-04-11T16:14:55Z</time>
      </trkpt>
      <trkpt lat="45.77195" lon="6.14213">
        <ele>944</ele>
        <time>2017-04-11T16:15:00Z</time>
      </trkpt>
      <trkpt lat="45.77244" lon="6.1429">
        <ele>938</ele>
        <time>2017-04-11T16:15:10Z</time>
      </trkpt>
      <trkpt lat="45.77266" lon="6.14333">
        <ele>934</ele>
        <time>2017-04-11T16:15:15Z</time>
      </trkpt>
      <trkpt lat="45.77275" lon="6.14384">
        <ele>934</ele>
        <time>2017-04-11T16:15:20Z</time>
      </trkpt>
      <trkpt lat="45.77259" lon="6.14488">
        <ele>941</ele>
        <time>2017-04-11T16:15:30Z</time>
      </trkpt>
      <trkpt lat="45.77285" lon="6.14579">
        <ele>939</ele>
        <time>2017-04-11T16:15:40Z</time>
      </trkpt>
      <trkpt lat="45.77291" lon="6.1467">
        <ele>943</ele>
        <time>2017-04-11T16:15:50Z</time>
      </trkpt>
      <trkpt lat="45.77312" lon="6.14703">
        <ele>943</ele>
        <time>2017-04-11T16:15:55Z</time>
      </trkpt>
      <trkpt lat="45.77346" lon="6.14699">
        <ele>942</ele>
        <time>2017-04-11T16:16:00Z</time>
      </trkpt>
      <trkpt lat="45.77375" lon="6.14673">
        <ele>938</ele>
        <time>2017-04-11T16:16:05Z</time>
      </trkpt>
      <trkpt lat="45.77416" lon="6.14607">
        <ele>929</ele>
        <time>2017-04-11T16:16:15Z</time>
      </trkpt>
      <trkpt lat="45.77467" lon="6.14637">
        <ele>933</ele>
        <time>2017-04-11T16:16:25Z</time>
      </trkpt>
      <trkpt lat="45.77488" lon="6.14637">
        <ele>933</ele>
        <time>2017-04-11T16:16:30Z</time>
      </trkpt>
      <trkpt lat="45.77505" lon="6.14653">
        <ele>934</ele>
        <time>2017-04-11T16:16:35Z</time>
      </trkpt>
      <trkpt lat="45.77518" lon="6.1467">
        <ele>936</ele>
        <time>2017-04-11T16:16:40Z</time>
      </trkpt>
      <trkpt lat="45.7753" lon="6.14712">
        <ele>939</ele>
        <time>2017-04-11T16:16:50Z</time>
      </trkpt>
      <trkpt lat="45.77551" lon="6.14744">
        <ele>940</ele>
        <time>2017-04-11T16:17:00Z</time>
      </trkpt>
      <trkpt lat="45.77589" lon="6.14769">
        <ele>938</ele>
        <time>2017-04-11T16:17:10Z</time>
      </trkpt>
      <trkpt lat="45.77612" lon="6.14785">
        <ele>935</ele>
        <time>2017-04-11T16:17:15Z</time>
      </trkpt>
      <trkpt lat="45.77627" lon="6.14822">
        <ele>935</ele>
        <time>2017-04-11T16:17:20Z</time>
      </trkpt>
      <trkpt lat="45.77639" lon="6.1487">
        <ele>936</ele>
        <time>2017-04-11T16:17:25Z</time>
      </trkpt>
      <trkpt lat="45.77642" lon="6.14961">
        <ele>943</ele>
        <time>2017-04-11T16:17:35Z</time>
      </trkpt>
      <trkpt lat="45.77657" lon="6.14968">
        <ele>941</ele>
        <time>2017-04-11T16:17:40Z</time>
      </trkpt>
      <trkpt lat="45.7769" lon="6.14974">
        <ele>938</ele>
        <time>2017-04-11T16:17:50Z</time>
      </trkpt>
      <trkpt lat="45.77737" lon="6.15035">
        <ele>943</ele>
        <time>2017-04-11T16:18:00Z</time>
      </trkpt>
      <trkpt lat="45.7777" lon="6.15036">
        <ele>943</ele>
        <time>2017-04-11T16:18:05Z</time>
      </trkpt>
      <trkpt lat="45.77802" lon="6.15026">
        <ele>942</ele>
        <time>2017-04-11T16:18:10Z</time>
      </trkpt>
      <trkpt lat="45.7788" lon="6.15014">
        <ele>942</ele>
        <time>2017-04-11T16:18:20Z</time>
      </trkpt>
      <trkpt lat="45.77927" lon="6.15013">
        <ele>942</ele>
        <time>2017-04-11T16:18:25Z</time>
      </trkpt>
      <trkpt lat="45.7797" lon="6.14983">
        <ele>936</ele>
        <time>2017-04-11T16:18:30Z</time>
      </trkpt>
      <trkpt lat="45.77987" lon="6.14949">
        <ele>929</ele>
        <time>2017-04-11T16:18:35Z</time>
      </trkpt>
      <trkpt lat="45.77932" lon="6.14907">
        <ele>925</ele>
        <time>2017-04-11T16:18:45Z</time>
      </trkpt>
      <trkpt lat="45.77965" lon="6.14883">
        <ele>918</ele>
        <time>2017-04-11T16:18:50Z</time>
      </trkpt>
      <trkpt lat="45.78006" lon="6.14867">
        <ele>913</ele>
        <time>2017-04-11T16:18:55Z</time>
      </trkpt>
      <trkpt lat="45.7805" lon="6.14848">
        <ele>912</ele>
        <time>2017-04-11T16:19:00Z</time>
      </trkpt>
      <trkpt lat="45.78142" lon="6.14776">
        <ele>905</ele>
        <time>2017-04-11T16:19:10Z</time>
      </trkpt>
      <trkpt lat="45.78295" lon="6.14703">
        <ele>886</ele>
        <time>2017-04-11T16:19:25Z</time>
      </trkpt>
      <trkpt lat="45.78397" lon="6.14668">
        <ele>872</ele>
        <time>2017-04-11T16:19:35Z</time>
      </trkpt>
      <trkpt lat="45.7845" lon="6.1466">
        <ele>868</ele>
        <time>2017-04-11T16:19:40Z</time>
      </trkpt>
      <trkpt lat="45.78504" lon="6.14668">
        <ele>866</ele>
        <time>2017-04-11T16:19:45Z</time>
      </trkpt>
      <trkpt lat="45.786" lon="6.14737">
        <ele>865</ele>
        <time>2017-04-11T16:19:55Z</time>
      </trkpt>
      <trkpt lat="45.78653" lon="6.14759">
        <ele>860</ele>
        <time>2017-04-11T16:20:00Z</time>
      </trkpt>
      <trkpt lat="45.78765" lon="6.14768">
        <ele>847</ele>
        <time>2017-04-11T16:20:10Z</time>
      </trkpt>
      <trkpt lat="45.78813" lon="6.14759">
        <ele>841</ele>
        <time>2017-04-11T16:20:15Z</time>
      </trkpt>
      <trkpt lat="45.78909" lon="6.14771">
        <ele>831</ele>
        <time>2017-04-11T16:20:25Z</time>
      </trkpt>
      <trkpt lat="45.78966" lon="6.14872">
        <ele>832</ele>
        <time>2017-04-11T16:20:35Z</time>
      </trkpt>
      <trkpt lat="45.78974" lon="6.14991">
        <ele>828</ele>
        <time>2017-04-11T16:20:45Z</time>
      </trkpt>
      <trkpt lat="45.79002" lon="6.14999">
        <ele>823</ele>
        <time>2017-04-11T16:20:50Z</time>
      </trkpt>
      <trkpt lat="45.79065" lon="6.1483">
        <ele>815</ele>
        <time>2017-04-11T16:21:05Z</time>
      </trkpt>
      <trkpt lat="45.79069" lon="6.1477">
        <ele>811</ele>
        <time>2017-04-11T16:21:10Z</time>
      </trkpt>
      <trkpt lat="45.79096" lon="6.14761">
        <ele>805</ele>
        <time>2017-04-11T16:21:15Z</time>
      </trkpt>
      <trkpt lat="45.79106" lon="6.14818">
        <ele>809</ele>
        <time>2017-04-11T16:21:20Z</time>
      </trkpt>
      <trkpt lat="45.79114" lon="6.14884">
        <ele>808</ele>
        <time>2017-04-11T16:21:25Z</time>
      </trkpt>
      <trkpt lat="45.79153" lon="6.15006">
        <ele>793</ele>
        <time>2017-04-11T16:21:35Z</time>
      </trkpt>
      <trkpt lat="45.79144" lon="6.15112">
        <ele>788</ele>
        <time>2017-04-11T16:21:45Z</time>
      </trkpt>
      <trkpt lat="45.79173" lon="6.15121">
        <ele>782</ele>
        <time>2017-04-11T16:21:50Z</time>
      </trkpt>
      <trkpt lat="45.79204" lon="6.15073">
        <ele>781</ele>
        <time>2017-04-11T16:21:55Z</time>
      </trkpt>
      <trkpt lat="45.7923" lon="6.15013">
        <ele>780</ele>
        <time>2017-04-11T16:22:00Z</time>
      </trkpt>
      <trkpt lat="45.79277" lon="6.14884">
        <ele>774</ele>
        <time>2017-04-11T16:22:10Z</time>
      </trkpt>
      <trkpt lat="45.79357" lon="6.14785">
        <ele>761</ele>
        <time>2017-04-11T16:22:20Z</time>
      </trkpt>
      <trkpt lat="45.79348" lon="6.14677">
        <ele>757</ele>
        <time>2017-04-11T16:22:30Z</time>
      </trkpt>
      <trkpt lat="45.79377" lon="6.14665">
        <ele>752</ele>
        <time>2017-04-11T16:22:35Z</time>
      </trkpt>
      <trkpt lat="45.79411" lon="6.14702">
        <ele>751</ele>
        <time>2017-04-11T16:22:40Z</time>
      </trkpt>
      <trkpt lat="45.7943" lon="6.14761">
        <ele>750</ele>
        <time>2017-04-11T16:22:45Z</time>
      </trkpt>
      <trkpt lat="45.79454" lon="6.14796">
        <ele>746</ele>
        <time>2017-04-11T16:22:50Z</time>
      </trkpt>
      <trkpt lat="45.79485" lon="6.14816">
        <ele>741</ele>
        <time>2017-04-11T16:22:55Z</time>
      </trkpt>
      <trkpt lat="45.7951" lon="6.14854">
        <ele>738</ele>
        <time>2017-04-11T16:23:00Z</time>
      </trkpt>
      <trkpt lat="45.79549" lon="6.14848">
        <ele>735</ele>
        <time>2017-04-11T16:23:05Z</time>
      </trkpt>
      <trkpt lat="45.79583" lon="6.14843">
        <ele>733</ele>
        <time>2017-04-11T16:23:10Z</time>
      </trkpt>
      <trkpt lat="45.79599" lon="6.14882">
        <ele>731</ele>
        <time>2017-04-11T16:23:15Z</time>
      </trkpt>
      <trkpt lat="45.79573" lon="6.14898">
        <ele>733</ele>
        <time>2017-04-11T16:23:20Z</time>
      </trkpt>
      <trkpt lat="45.79508" lon="6.14869">
        <ele>738</ele>
        <time>2017-04-11T16:23:30Z</time>
      </trkpt>
      <trkpt lat="45.79482" lon="6.1489">
        <ele>741</ele>
        <time>2017-04-11T16:23:35Z</time>
      </trkpt>
      <trkpt lat="45.79528" lon="6.14981">
        <ele>739</ele>
        <time>2017-04-11T16:23:45Z</time>
      </trkpt>
      <trkpt lat="45.79546" lon="6.15048">
        <ele>741</ele>
        <time>2017-04-11T16:23:50Z</time>
      </trkpt>
      <trkpt lat="45.79581" lon="6.15088">
        <ele>738</ele>
        <time>2017-04-11T16:23:55Z</time>
      </trkpt>
      <trkpt lat="45.79625" lon="6.15107">
        <ele>730</ele>
        <time>2017-04-11T16:24:00Z</time>
      </trkpt>
      <trkpt lat="45.79671" lon="6.15126">
        <ele>723</ele>
        <time>2017-04-11T16:24:05Z</time>
      </trkpt>
      <trkpt lat="45.79749" lon="6.15188">
        <ele>718</ele>
        <time>2017-04-11T16:24:15Z</time>
      </trkpt>
      <trkpt lat="45.79801" lon="6.15176">
        <ele>712</ele>
        <time>2017-04-11T16:24:20Z</time>
      </trkpt>
      <trkpt lat="45.79897" lon="6.15125">
        <ele>696</ele>
        <time>2017-04-11T16:24:30Z</time>
      </trkpt>
      <trkpt lat="45.80029" lon="6.15144">
        <ele>690</ele>
        <time>2017-04-11T16:24:45Z</time>
      </trkpt>
      <trkpt lat="45.80061" lon="6.15107">
        <ele>688</ele>
        <time>2017-04-11T16:24:50Z</time>
      </trkpt>
      <trkpt lat="45.8006" lon="6.14969">
        <ele>679</ele>
        <time>2017-04-11T16:25:00Z</time>
      </trkpt>
      <trkpt lat="45.80073" lon="6.14909">
        <ele>678</ele>
        <time>2017-04-11T16:25:05Z</time>
      </trkpt>
      <trkpt lat="45.80102" lon="6.14877">
        <ele>676</ele>
        <time>2017-04-11T16:25:10Z</time>
      </trkpt>
      <trkpt lat="45.80154" lon="6.14861">
        <ele>672</ele>
        <time>2017-04-11T16:25:15Z</time>
      </trkpt>
      <trkpt lat="45.80203" lon="6.14823">
        <ele>663</ele>
        <time>2017-04-11T16:25:20Z</time>
      </trkpt>
      <trkpt lat="45.80242" lon="6.14761">
        <ele>655</ele>
        <time>2017-04-11T16:25:25Z</time>
      </trkpt>
      <trkpt lat="45.80267" lon="6.14704">
        <ele>648</ele>
        <time>2017-04-11T16:25:30Z</time>
      </trkpt>
      <trkpt lat="45.80308" lon="6.14682">
        <ele>643</ele>
        <time>2017-04-11T16:25:35Z</time>
      </trkpt>
      <trkpt lat="45.80416" lon="6.14708">
        <ele>637</ele>
        <time>2017-04-11T16:25:45Z</time>
      </trkpt>
      <trkpt lat="45.80468" lon="6.14696">
        <ele>633</ele>
        <time>2017-04-11T16:25:50Z</time>
      </trkpt>
      <trkpt lat="45.80561" lon="6.14624">
        <ele>615</ele>
        <time>2017-04-11T16:26:00Z</time>
      </trkpt>
      <trkpt lat="45.80639" lon="6.14637">
        <ele>614</ele>
        <time>2017-04-11T16:26:10Z</time>
      </trkpt>
      <trkpt lat="45.80617" lon="6.14592">
        <ele>605</ele>
        <time>2017-04-11T16:26:15Z</time>
      </trkpt>
      <trkpt lat="45.80504" lon="6.14484">
        <ele>596</ele>
        <time>2017-04-11T16:26:30Z</time>
      </trkpt>
      <trkpt lat="45.80506" lon="6.14431">
        <ele>597</ele>
        <time>2017-04-11T16:26:35Z</time>
      </trkpt>
      <trkpt lat="45.80542" lon="6.14413">
        <ele>592</ele>
        <time>2017-04-11T16:26:40Z</time>
      </trkpt>
      <trkpt lat="45.80584" lon="6.14425">
        <ele>589</ele>
        <time>2017-04-11T16:26:45Z</time>
      </trkpt>
      <trkpt lat="45.80679" lon="6.14448">
        <ele>585</ele>
        <time>2017-04-11T16:26:55Z</time>
      </trkpt>
      <trkpt lat="45.80731" lon="6.14452">
        <ele>586</ele>
        <time>2017-04-11T16:27:00Z</time>
      </trkpt>
      <trkpt lat="45.80788" lon="6.1444">
        <ele>584</ele>
        <time>2017-04-11T16:27:05Z</time>
      </trkpt>
      <trkpt lat="45.80844" lon="6.14425">
        <ele>581</ele>
        <time>2017-04-11T16:27:10Z</time>
      </trkpt>
      <trkpt lat="45.80945" lon="6.1439">
        <ele>578</ele>
        <time>2017-04-11T16:27:20Z</time>
      </trkpt>
      <trkpt lat="45.81043" lon="6.14387">
        <ele>576</ele>
        <time>2017-04-11T16:27:30Z</time>
      </trkpt>
      <trkpt lat="45.81136" lon="6.14431">
        <ele>572</ele>
        <time>2017-04-11T16:27:40Z</time>
      </trkpt>
      <trkpt lat="45.81192" lon="6.14438">
        <ele>571</ele>
        <time>2017-04-11T16:27:45Z</time>
      </trkpt>
      <trkpt lat="45.81248" lon="6.14464">
        <ele>568</ele>
        <time>2017-04-11T16:27:50Z</time>
      </trkpt>
      <trkpt lat="45.81327" lon="6.14504">
        <ele>564</ele>
        <time>2017-04-11T16:28:00Z</time>
      </trkpt>
      <trkpt lat="45.81363" lon="6.14503">
        <ele>563</ele>
        <time>2017-04-11T16:28:05Z</time>
      </trkpt>
      <trkpt lat="45.81408" lon="6.14498">
        <ele>561</ele>
        <time>2017-04-11T16:28:10Z</time>
      </trkpt>
      <trkpt lat="45.81511" lon="6.14532">
        <ele>557</ele>
        <time>2017-04-11T16:28:20Z</time>
      </trkpt>
      <trkpt lat="45.81598" lon="6.14529">
        <ele>555</ele>
        <time>2017-04-11T16:28:30Z</time>
      </trkpt>
      <trkpt lat="45.81594" lon="6.14579">
        <ele>552</ele>
        <time>2017-04-11T16:28:35Z</time>
      </trkpt>
      <trkpt lat="45.81592" lon="6.14628">
        <ele>550</ele>
        <time>2017-04-11T16:28:40Z</time>
      </trkpt>
      <trkpt lat="45.81601" lon="6.14639">
        <ele>549</ele>
        <time>2017-04-11T16:28:45Z</time>
      </trkpt>
      <trkpt lat="45.81606" lon="6.14646">
        <ele>549</ele>
        <time>2017-04-11T16:28:50Z</time>
      </trkpt>
      <trkpt lat="45.81625" lon="6.1466">
        <ele>548</ele>
        <time>2017-04-11T16:29:00Z</time>
      </trkpt>
      <trkpt lat="45.81646" lon="6.14674">
        <ele>547</ele>
        <time>2017-04-11T16:29:05Z</time>
      </trkpt>
      <trkpt lat="45.81699" lon="6.14669">
        <ele>545</ele>
        <time>2017-04-11T16:29:15Z</time>
      </trkpt>
      <trkpt lat="45.81736" lon="6.14679">
        <ele>544</ele>
        <time>2017-04-11T16:29:20Z</time>
      </trkpt>
      <trkpt lat="45.8186" lon="6.14726">
        <ele>536</ele>
        <time>2017-04-11T16:29:35Z</time>
      </trkpt>
      <trkpt lat="45.81902" lon="6.14708">
        <ele>530</ele>
        <time>2017-04-11T16:29:40Z</time>
      </trkpt>
      <trkpt lat="45.81935" lon="6.14719">
        <ele>526</ele>
        <time>2017-04-11T16:29:45Z</time>
      </trkpt>
      <trkpt lat="45.81998" lon="6.1478">
        <ele>524</ele>
        <time>2017-04-11T16:29:55Z</time>
      </trkpt>
      <trkpt lat="45.8206" lon="6.14802">
        <ele>522</ele>
        <time>2017-04-11T16:30:05Z</time>
      </trkpt>
      <trkpt lat="45.82138" lon="6.14826">
        <ele>517</ele>
        <time>2017-04-11T16:30:15Z</time>
      </trkpt>
      <trkpt lat="45.82177" lon="6.14812">
        <ele>514</ele>
        <time>2017-04-11T16:30:20Z</time>
      </trkpt>
      <trkpt lat="45.82216" lon="6.14792">
        <ele>511</ele>
        <time>2017-04-11T16:30:25Z</time>
      </trkpt>
      <trkpt lat="45.82256" lon="6.14813">
        <ele>510</ele>
        <time>2017-04-11T16:30:30Z</time>
      </trkpt>
      <trkpt lat="45.82268" lon="6.14932">
        <ele>513</ele>
        <time>2017-04-11T16:30:40Z</time>
      </trkpt>
      <trkpt lat="45.82289" lon="6.14993">
        <ele>512</ele>
        <time>2017-04-11T16:30:45Z</time>
      </trkpt>
      <trkpt lat="45.82325" lon="6.15043">
        <ele>510</ele>
        <time>2017-04-11T16:30:50Z</time>
      </trkpt>
      <trkpt lat="45.8237" lon="6.15077">
        <ele>506</ele>
        <time>2017-04-11T16:30:55Z</time>
      </trkpt>
      <trkpt lat="45.82461" lon="6.15128">
        <ele>498</ele>
        <time>2017-04-11T16:31:05Z</time>
      </trkpt>
      <trkpt lat="45.82501" lon="6.15145">
        <ele>496</ele>
        <time>2017-04-11T16:31:10Z</time>
      </trkpt>
      <trkpt lat="45.82565" lon="6.15144">
        <ele>493</ele>
        <time>2017-04-11T16:31:20Z</time>
      </trkpt>
      <trkpt lat="45.82588" lon="6.15123">
        <ele>493</ele>
        <time>2017-04-11T16:31:25Z</time>
      </trkpt>
      <trkpt lat="45.82624" lon="6.15145">
        <ele>491</ele>
        <time>2017-04-11T16:31:30Z</time>
      </trkpt>
      <trkpt lat="45.82758" lon="6.15202">
        <ele>489</ele>
        <time>2017-04-11T16:31:45Z</time>
      </trkpt>
      <trkpt lat="45.828" lon="6.15203">
        <ele>488</ele>
        <time>2017-04-11T16:31:50Z</time>
      </trkpt>
      <trkpt lat="45.8284" lon="6.15197">
        <ele>488</ele>
        <time>2017-04-11T16:31:55Z</time>
      </trkpt>
      <trkpt lat="45.82911" lon="6.15187">
        <ele>487</ele>
        <time>2017-04-11T16:32:05Z</time>
      </trkpt>
      <trkpt lat="45.82946" lon="6.15182">
        <ele>486</ele>
        <time>2017-04-11T16:32:10Z</time>
      </trkpt>
      <trkpt lat="45.83015" lon="6.15169">
        <ele>484</ele>
        <time>2017-04-11T16:32:20Z</time>
      </trkpt>
      <trkpt lat="45.83052" lon="6.15157">
        <ele>484</ele>
        <time>2017-04-11T16:32:25Z</time>
      </trkpt>
      <trkpt lat="45.83123" lon="6.15127">
        <ele>485</ele>
        <time>2017-04-11T16:32:35Z</time>
      </trkpt>
      <trkpt lat="45.83221" lon="6.15077">
        <ele>486</ele>
        <time>2017-04-11T16:32:50Z</time>
      </trkpt>
      <trkpt lat="45.83255" lon="6.15062">
        <ele>486</ele>
        <time>2017-04-11T16:32:55Z</time>
      </trkpt>
      <trkpt lat="45.83289" lon="6.15054">
        <ele>485</ele>
        <time>2017-04-11T16:33:00Z</time>
      </trkpt>
      <trkpt lat="45.83324" lon="6.15052">
        <ele>484</ele>
        <time>2017-04-11T16:33:05Z</time>
      </trkpt>
      <trkpt lat="45.83361" lon="6.15055">
        <ele>482</ele>
        <time>2017-04-11T16:33:10Z</time>
      </trkpt>
      <trkpt lat="45.83407" lon="6.15071">
        <ele>481</ele>
        <time>2017-04-11T16:33:20Z</time>
      </trkpt>
      <trkpt lat="45.83477" lon="6.1507">
        <ele>481</ele>
        <time>2017-04-11T16:33:30Z</time>
      </trkpt>
      <trkpt lat="45.83507" lon="6.15059">
        <ele>482</ele>
        <time>2017-04-11T16:33:35Z</time>
      </trkpt>
      <trkpt lat="45.83569" lon="6.15013">
        <ele>485</ele>
        <time>2017-04-11T16:33:45Z</time>
      </trkpt>
      <trkpt lat="45.8361" lon="6.14998">
        <ele>485</ele>
        <time>2017-04-11T16:33:50Z</time>
      </trkpt>
      <trkpt lat="45.83653" lon="6.14988">
        <ele>483</ele>
        <time>2017-04-11T16:33:55Z</time>
      </trkpt>
      <trkpt lat="45.83697" lon="6.14978">
        <ele>482</ele>
        <time>2017-04-11T16:34:00Z</time>
      </trkpt>
      <trkpt lat="45.83831" lon="6.14948">
        <ele>475</ele>
        <time>2017-04-11T16:34:15Z</time>
      </trkpt>
      <trkpt lat="45.83953" lon="6.1492">
        <ele>470</ele>
        <time>2017-04-11T16:34:30Z</time>
      </trkpt>
      <trkpt lat="45.84035" lon="6.14898">
        <ele>469</ele>
        <time>2017-04-11T16:34:40Z</time>
      </trkpt>
      <trkpt lat="45.84076" lon="6.14891">
        <ele>468</ele>
        <time>2017-04-11T16:34:45Z</time>
      </trkpt>
      <trkpt lat="45.84158" lon="6.14874">
        <ele>465</ele>
        <time>2017-04-11T16:34:55Z</time>
      </trkpt>
      <trkpt lat="45.84237" lon="6.14854">
        <ele>463</ele>
        <time>2017-04-11T16:35:05Z</time>
      </trkpt>
      <trkpt lat="45.84311" lon="6.14838">
        <ele>462</ele>
        <time>2017-04-11T16:35:15Z</time>
      </trkpt>
      <trkpt lat="45.8435" lon="6.14827">
        <ele>461</ele>
        <time>2017-04-11T16:35:20Z</time>
      </trkpt>
      <trkpt lat="45.84389" lon="6.14822">
        <ele>461</ele>
        <time>2017-04-11T16:35:25Z</time>
      </trkpt>
      <trkpt lat="45.84464" lon="6.14815">
        <ele>462</ele>
        <time>2017-04-11T16:35:35Z</time>
      </trkpt>
      <trkpt lat="45.84494" lon="6.14815">
        <ele>462</ele>
        <time>2017-04-11T16:35:40Z</time>
      </trkpt>
      <trkpt lat="45.84514" lon="6.14826">
        <ele>461</ele>
        <time>2017-04-11T16:35:45Z</time>
      </trkpt>
      <trkpt lat="45.8452" lon="6.14837">
        <ele>460</ele>
        <time>2017-04-11T16:35:50Z</time>
      </trkpt>
      <trkpt lat="45.84523" lon="6.14852">
        <ele>460</ele>
        <time>2017-04-11T16:35:55Z</time>
      </trkpt>
      <trkpt lat="45.84553" lon="6.14904">
        <ele>457</ele>
        <time>2017-04-11T16:36:05Z</time>
      </trkpt>
      <trkpt lat="45.84535" lon="6.14924">
        <ele>457</ele>
        <time>2017-04-11T16:36:10Z</time>
      </trkpt>
      <trkpt lat="45.84506" lon="6.14933">
        <ele>458</ele>
        <time>2017-04-11T16:36:15Z</time>
      </trkpt>
      <trkpt lat="45.8448" lon="6.14959">
        <ele>457</ele>
        <time>2017-04-11T16:36:20Z</time>
      </trkpt>
      <trkpt lat="45.84458" lon="6.14987">
        <ele>456</ele>
        <time>2017-04-11T16:36:25Z</time>
      </trkpt>
      <trkpt lat="45.84412" lon="6.15048">
        <ele>455</ele>
        <time>2017-04-11T16:36:35Z</time>
      </trkpt>
      <trkpt lat="45.84365" lon="6.15111">
        <ele>455</ele>
        <time>2017-04-11T16:36:45Z</time>
      </trkpt>
      <trkpt lat="45.84346" lon="6.15142">
        <ele>455</ele>
        <time>2017-04-11T16:36:50Z</time>
      </trkpt>
      <trkpt lat="45.84358" lon="6.15179">
        <ele>454</ele>
        <time>2017-04-11T16:36:55Z</time>
      </trkpt>
      <trkpt lat="45.84399" lon="6.15258">
        <ele>454</ele>
        <time>2017-04-11T16:37:05Z</time>
      </trkpt>
      <trkpt lat="45.84412" lon="6.15299">
        <ele>453</ele>
        <time>2017-04-11T16:37:10Z</time>
      </trkpt>
      <trkpt lat="45.84413" lon="6.15384">
        <ele>452</ele>
        <time>2017-04-11T16:37:20Z</time>
      </trkpt>
      <trkpt lat="45.84432" lon="6.15421">
        <ele>452</ele>
        <time>2017-04-11T16:37:30Z</time>
      </trkpt>
      <trkpt lat="45.84454" lon="6.15393">
        <ele>452</ele>
        <time>2017-04-11T16:37:35Z</time>
      </trkpt>
      <trkpt lat="45.84481" lon="6.15357">
        <ele>452</ele>
        <time>2017-04-11T16:37:40Z</time>
      </trkpt>
      <trkpt lat="45.8451" lon="6.15323">
        <ele>451</ele>
        <time>2017-04-11T16:37:45Z</time>
      </trkpt>
      <trkpt lat="45.84541" lon="6.15293">
        <ele>451</ele>
        <time>2017-04-11T16:37:50Z</time>
      </trkpt>
      <trkpt lat="45.84575" lon="6.15265">
        <ele>451</ele>
        <time>2017-04-11T16:37:55Z</time>
      </trkpt>
      <trkpt lat="45.84609" lon="6.15239">
        <ele>451</ele>
        <time>2017-04-11T16:38:00Z</time>
      </trkpt>
      <trkpt lat="45.84643" lon="6.15217">
        <ele>450</ele>
        <time>2017-04-11T16:38:05Z</time>
      </trkpt>
      <trkpt lat="45.84675" lon="6.15196">
        <ele>449</ele>
        <time>2017-04-11T16:38:10Z</time>
      </trkpt>
      <trkpt lat="45.84706" lon="6.15176">
        <ele>449</ele>
        <time>2017-04-11T16:38:15Z</time>
      </trkpt>
      <trkpt lat="45.84802" lon="6.15114">
        <ele>449</ele>
        <time>2017-04-11T16:38:30Z</time>
      </trkpt>
      <trkpt lat="45.84866" lon="6.15073">
        <ele>450</ele>
        <time>2017-04-11T16:38:40Z</time>
      </trkpt>
      <trkpt lat="45.84924" lon="6.15034">
        <ele>451</ele>
        <time>2017-04-11T16:38:50Z</time>
      </trkpt>
      <trkpt lat="45.84954" lon="6.15016">
        <ele>451</ele>
        <time>2017-04-11T16:38:55Z</time>
      </trkpt>
      <trkpt lat="45.85046" lon="6.14957">
        <ele>451</ele>
        <time>2017-04-11T16:39:10Z</time>
      </trkpt>
      <trkpt lat="45.85104" lon="6.14916">
        <ele>451</ele>
        <time>2017-04-11T16:39:20Z</time>
      </trkpt>
      <trkpt lat="45.85132" lon="6.14893">
        <ele>451</ele>
        <time>2017-04-11T16:39:25Z</time>
      </trkpt>
      <trkpt lat="45.85193" lon="6.14839">
        <ele>450</ele>
        <time>2017-04-11T16:39:35Z</time>
      </trkpt>
      <trkpt lat="45.85252" lon="6.14783">
        <ele>450</ele>
        <time>2017-04-11T16:39:45Z</time>
      </trkpt>
      <trkpt lat="45.8531" lon="6.14727">
        <ele>449</ele>
        <time>2017-04-11T16:39:55Z</time>
      </trkpt>
      <trkpt lat="45.85338" lon="6.14701">
        <ele>449</ele>
        <time>2017-04-11T16:40:00Z</time>
      </trkpt>
      <trkpt lat="45.85367" lon="6.14678">
        <ele>449</ele>
        <time>2017-04-11T16:40:05Z</time>
      </trkpt>
      <trkpt lat="45.85399" lon="6.1466">
        <ele>449</ele>
        <time>2017-04-11T16:40:10Z</time>
      </trkpt>
      <trkpt lat="45.8543" lon="6.14648">
        <ele>448</ele>
        <time>2017-04-11T16:40:15Z</time>
      </trkpt>
      <trkpt lat="45.85466" lon="6.14641">
        <ele>447</ele>
        <time>2017-04-11T16:40:20Z</time>
      </trkpt>
      <trkpt lat="45.85562" lon="6.14633">
        <ele>446</ele>
        <time>2017-04-11T16:40:35Z</time>
      </trkpt>
      <trkpt lat="45.8559" lon="6.14627">
        <ele>446</ele>
        <time>2017-04-11T16:40:40Z</time>
      </trkpt>
      <trkpt lat="45.85619" lon="6.14616">
        <ele>446</ele>
        <time>2017-04-11T16:40:45Z</time>
      </trkpt>
      <trkpt lat="45.85646" lon="6.14599">
        <ele>446</ele>
        <time>2017-04-11T16:40:50Z</time>
      </trkpt>
      <trkpt lat="45.85672" lon="6.14577">
        <ele>446</ele>
        <time>2017-04-11T16:40:55Z</time>
      </trkpt>
      <trkpt lat="45.85697" lon="6.1455">
        <ele>446</ele>
        <time>2017-04-11T16:41:00Z</time>
      </trkpt>
      <trkpt lat="45.85719" lon="6.14517">
        <ele>446</ele>
        <time>2017-04-11T16:41:05Z</time>
      </trkpt>
      <trkpt lat="45.85763" lon="6.14441">
        <ele>448</ele>
        <time>2017-04-11T16:41:15Z</time>
      </trkpt>
      <trkpt lat="45.85817" lon="6.14366">
        <ele>448</ele>
        <time>2017-04-11T16:41:25Z</time>
      </trkpt>
      <trkpt lat="45.85847" lon="6.14334">
        <ele>449</ele>
        <time>2017-04-11T16:41:30Z</time>
      </trkpt>
      <trkpt lat="45.85878" lon="6.14309">
        <ele>449</ele>
        <time>2017-04-11T16:41:35Z</time>
      </trkpt>
      <trkpt lat="45.85908" lon="6.14295">
        <ele>450</ele>
        <time>2017-04-11T16:41:40Z</time>
      </trkpt>
      <trkpt lat="45.85943" lon="6.14284">
        <ele>451</ele>
        <time>2017-04-11T16:41:50Z</time>
      </trkpt>
      <trkpt lat="45.8596" lon="6.14256">
        <ele>452</ele>
        <time>2017-04-11T16:41:55Z</time>
      </trkpt>
      <trkpt lat="45.85984" lon="6.14236">
        <ele>453</ele>
        <time>2017-04-11T16:42:00Z</time>
      </trkpt>
      <trkpt lat="45.86016" lon="6.14229">
        <ele>454</ele>
        <time>2017-04-11T16:42:05Z</time>
      </trkpt>
      <trkpt lat="45.86051" lon="6.14237">
        <ele>454</ele>
        <time>2017-04-11T16:42:10Z</time>
      </trkpt>
      <trkpt lat="45.86084" lon="6.14251">
        <ele>452</ele>
        <time>2017-04-11T16:42:15Z</time>
      </trkpt>
      <trkpt lat="45.86117" lon="6.14267">
        <ele>452</ele>
        <time>2017-04-11T16:42:20Z</time>
      </trkpt>
      <trkpt lat="45.86182" lon="6.14292">
        <ele>451</ele>
        <time>2017-04-11T16:42:30Z</time>
      </trkpt>
      <trkpt lat="45.8624" lon="6.14344">
        <ele>449</ele>
        <time>2017-04-11T16:42:40Z</time>
      </trkpt>
      <trkpt lat="45.86273" lon="6.14363">
        <ele>448</ele>
        <time>2017-04-11T16:42:45Z</time>
      </trkpt>
      <trkpt lat="45.8634" lon="6.14385">
        <ele>447</ele>
        <time>2017-04-11T16:42:55Z</time>
      </trkpt>
      <trkpt lat="45.86373" lon="6.14388">
        <ele>447</ele>
        <time>2017-04-11T16:43:00Z</time>
      </trkpt>
      <trkpt lat="45.86407" lon="6.14388">
        <ele>446</ele>
        <time>2017-04-11T16:43:05Z</time>
      </trkpt>
      <trkpt lat="45.86475" lon="6.14387">
        <ele>446</ele>
        <time>2017-04-11T16:43:15Z</time>
      </trkpt>
      <trkpt lat="45.86545" lon="6.14387">
        <ele>446</ele>
        <time>2017-04-11T16:43:25Z</time>
      </trkpt>
      <trkpt lat="45.86579" lon="6.14387">
        <ele>446</ele>
        <time>2017-04-11T16:43:30Z</time>
      </trkpt>
      <trkpt lat="45.86613" lon="6.14381">
        <ele>447</ele>
        <time>2017-04-11T16:43:35Z</time>
      </trkpt>
      <trkpt lat="45.86648" lon="6.1437">
        <ele>447</ele>
        <time>2017-04-11T16:43:40Z</time>
      </trkpt>
      <trkpt lat="45.86681" lon="6.14352">
        <ele>448</ele>
        <time>2017-04-11T16:43:45Z</time>
      </trkpt>
      <trkpt lat="45.86776" lon="6.14291">
        <ele>449</ele>
        <time>2017-04-11T16:44:00Z</time>
      </trkpt>
      <trkpt lat="45.86808" lon="6.14277">
        <ele>449</ele>
        <time>2017-04-11T16:44:05Z</time>
      </trkpt>
      <trkpt lat="45.86872" lon="6.14267">
        <ele>449</ele>
        <time>2017-04-11T16:44:15Z</time>
      </trkpt>
      <trkpt lat="45.86903" lon="6.14269">
        <ele>449</ele>
        <time>2017-04-11T16:44:20Z</time>
      </trkpt>
      <trkpt lat="45.86934" lon="6.14278">
        <ele>449</ele>
        <time>2017-04-11T16:44:25Z</time>
      </trkpt>
      <trkpt lat="45.86962" lon="6.1429">
        <ele>449</ele>
        <time>2017-04-11T16:44:30Z</time>
      </trkpt>
      <trkpt lat="45.87082" lon="6.14356">
        <ele>448</ele>
        <time>2017-04-11T16:44:50Z</time>
      </trkpt>
      <trkpt lat="45.87113" lon="6.14369">
        <ele>447</ele>
        <time>2017-04-11T16:44:55Z</time>
      </trkpt>
      <trkpt lat="45.87146" lon="6.14379">
        <ele>447</ele>
        <time>2017-04-11T16:45:00Z</time>
      </trkpt>
      <trkpt lat="45.87179" lon="6.14383">
        <ele>447</ele>
        <time>2017-04-11T16:45:05Z</time>
      </trkpt>
      <trkpt lat="45.87245" lon="6.14382">
        <ele>447</ele>
        <time>2017-04-11T16:45:15Z</time>
      </trkpt>
      <trkpt lat="45.87277" lon="6.14375">
        <ele>447</ele>
        <time>2017-04-11T16:45:20Z</time>
      </trkpt>
      <trkpt lat="45.8731" lon="6.14364">
        <ele>447</ele>
        <time>2017-04-11T16:45:25Z</time>
      </trkpt>
      <trkpt lat="45.87342" lon="6.14352">
        <ele>448</ele>
        <time>2017-04-11T16:45:30Z</time>
      </trkpt>
      <trkpt lat="45.87441" lon="6.14317">
        <ele>448</ele>
        <time>2017-04-11T16:45:45Z</time>
      </trkpt>
      <trkpt lat="45.87474" lon="6.14309">
        <ele>448</ele>
        <time>2017-04-11T16:45:50Z</time>
      </trkpt>
      <trkpt lat="45.87506" lon="6.14306">
        <ele>448</ele>
        <time>2017-04-11T16:45:55Z</time>
      </trkpt>
      <trkpt lat="45.87537" lon="6.14307">
        <ele>448</ele>
        <time>2017-04-11T16:46:00Z</time>
      </trkpt>
      <trkpt lat="45.8763" lon="6.14311">
        <ele>446</ele>
        <time>2017-04-11T16:46:15Z</time>
      </trkpt>
      <trkpt lat="45.87661" lon="6.14311">
        <ele>446</ele>
        <time>2017-04-11T16:46:20Z</time>
      </trkpt>
      <trkpt lat="45.87694" lon="6.14304">
        <ele>447</ele>
        <time>2017-04-11T16:46:25Z</time>
      </trkpt>
      <trkpt lat="45.87815" lon="6.14267">
        <ele>448</ele>
        <time>2017-04-11T16:46:45Z</time>
      </trkpt>
      <trkpt lat="45.87845" lon="6.14262">
        <ele>448</ele>
        <time>2017-04-11T16:46:50Z</time>
      </trkpt>
      <trkpt lat="45.87876" lon="6.14262">
        <ele>448</ele>
        <time>2017-04-11T16:46:55Z</time>
      </trkpt>
      <trkpt lat="45.87969" lon="6.14268">
        <ele>447</ele>
        <time>2017-04-11T16:47:10Z</time>
      </trkpt>
      <trkpt lat="45.88" lon="6.14266">
        <ele>447</ele>
        <time>2017-04-11T16:47:15Z</time>
      </trkpt>
      <trkpt lat="45.88031" lon="6.14261">
        <ele>447</ele>
        <time>2017-04-11T16:47:20Z</time>
      </trkpt>
      <trkpt lat="45.88062" lon="6.1425">
        <ele>448</ele>
        <time>2017-04-11T16:47:25Z</time>
      </trkpt>
      <trkpt lat="45.88116" lon="6.14216">
        <ele>448</ele>
        <time>2017-04-11T16:47:35Z</time>
      </trkpt>
      <trkpt lat="45.88143" lon="6.14204">
        <ele>449</ele>
        <time>2017-04-11T16:47:40Z</time>
      </trkpt>
      <trkpt lat="45.88212" lon="6.14203">
        <ele>448</ele>
        <time>2017-04-11T16:47:50Z</time>
      </trkpt>
      <trkpt lat="45.88254" lon="6.14202">
        <ele>448</ele>
        <time>2017-04-11T16:47:55Z</time>
      </trkpt>
      <trkpt lat="45.88298" lon="6.14203">
        <ele>448</ele>
        <time>2017-04-11T16:48:00Z</time>
      </trkpt>
      <trkpt lat="45.88343" lon="6.14208">
        <ele>448</ele>
        <time>2017-04-11T16:48:05Z</time>
      </trkpt>
      <trkpt lat="45.88385" lon="6.14216">
        <ele>449</ele>
        <time>2017-04-11T16:48:10Z</time>
      </trkpt>
      <trkpt lat="45.88461" lon="6.14227">
        <ele>451</ele>
        <time>2017-04-11T16:48:20Z</time>
      </trkpt>
      <trkpt lat="45.88532" lon="6.14242">
        <ele>452</ele>
        <time>2017-04-11T16:48:30Z</time>
      </trkpt>
      <trkpt lat="45.88568" lon="6.14256">
        <ele>450</ele>
        <time>2017-04-11T16:48:35Z</time>
      </trkpt>
      <trkpt lat="45.88641" lon="6.14294">
        <ele>448</ele>
        <time>2017-04-11T16:48:45Z</time>
      </trkpt>
      <trkpt lat="45.88711" lon="6.14325">
        <ele>446</ele>
        <time>2017-04-11T16:48:55Z</time>
      </trkpt>
      <trkpt lat="45.88745" lon="6.14337">
        <ele>445</ele>
        <time>2017-04-11T16:49:00Z</time>
      </trkpt>
      <trkpt lat="45.88808" lon="6.14355">
        <ele>445</ele>
        <time>2017-04-11T16:49:10Z</time>
      </trkpt>
      <trkpt lat="45.8884" lon="6.1436">
        <ele>446</ele>
        <time>2017-04-11T16:49:15Z</time>
      </trkpt>
      <trkpt lat="45.88871" lon="6.1436">
        <ele>446</ele>
        <time>2017-04-11T16:49:20Z</time>
      </trkpt>
      <trkpt lat="45.88935" lon="6.1436">
        <ele>445</ele>
        <time>2017-04-11T16:49:30Z</time>
      </trkpt>
      <trkpt lat="45.88966" lon="6.14356">
        <ele>445</ele>
        <time>2017-04-11T16:49:35Z</time>
      </trkpt>
      <trkpt lat="45.88993" lon="6.14342">
        <ele>445</ele>
        <time>2017-04-11T16:49:40Z</time>
      </trkpt>
      <trkpt lat="45.89019" lon="6.14321">
        <ele>445</ele>
        <time>2017-04-11T16:49:45Z</time>
      </trkpt>
      <trkpt lat="45.89039" lon="6.14286">
        <ele>445</ele>
        <time>2017-04-11T16:49:50Z</time>
      </trkpt>
      <trkpt lat="45.8905" lon="6.14247">
        <ele>446</ele>
        <time>2017-04-11T16:49:55Z</time>
      </trkpt>
      <trkpt lat="45.89058" lon="6.14112">
        <ele>447</ele>
        <time>2017-04-11T16:50:10Z</time>
      </trkpt>
      <trkpt lat="45.89071" lon="6.14067">
        <ele>447</ele>
        <time>2017-04-11T16:50:15Z</time>
      </trkpt>
      <trkpt lat="45.8911" lon="6.13992">
        <ele>447</ele>
        <time>2017-04-11T16:50:25Z</time>
      </trkpt>
      <trkpt lat="45.89153" lon="6.1392">
        <ele>447</ele>
        <time>2017-04-11T16:50:35Z</time>
      </trkpt>
      <trkpt lat="45.89174" lon="6.13884">
        <ele>447</ele>
        <time>2017-04-11T16:50:40Z</time>
      </trkpt>
      <trkpt lat="45.89196" lon="6.13849">
        <ele>446</ele>
        <time>2017-04-11T16:50:45Z</time>
      </trkpt>
      <trkpt lat="45.89269" lon="6.13724">
        <ele>446</ele>
        <time>2017-04-11T16:51:00Z</time>
      </trkpt>
      <trkpt lat="45.8929" lon="6.13685">
        <ele>447</ele>
        <time>2017-04-11T16:51:05Z</time>
      </trkpt>
      <trkpt lat="45.89313" lon="6.13656">
        <ele>447</ele>
        <time>2017-04-11T16:51:10Z</time>
      </trkpt>
      <trkpt lat="45.894" lon="6.13529">
        <ele>447</ele>
        <time>2017-04-11T16:51:30Z</time>
      </trkpt>
      <trkpt lat="45.89419" lon="6.13498">
        <ele>447</ele>
        <time>2017-04-11T16:51:35Z</time>
      </trkpt>
      <trkpt lat="45.89436" lon="6.13477">
        <ele>447</ele>
        <time>2017-04-11T16:51:40Z</time>
      </trkpt>
      <trkpt lat="45.89441" lon="6.13457">
        <ele>448</ele>
        <time>2017-04-11T16:51:45Z</time>
      </trkpt>
      <trkpt lat="45.89462" lon="6.13431">
        <ele>448</ele>
        <time>2017-04-11T16:51:50Z</time>
      </trkpt>
      <trkpt lat="45.8949" lon="6.13397">
        <ele>448</ele>
        <time>2017-04-11T16:51:55Z</time>
      </trkpt>
      <trkpt lat="45.89519" lon="6.13362">
        <ele>448</ele>
        <time>2017-04-11T16:52:00Z</time>
      </trkpt>
      <trkpt lat="45.89547" lon="6.13329">
        <ele>448</ele>
        <time>2017-04-11T16:52:05Z</time>
      </trkpt>
      <trkpt lat="45.89574" lon="6.13297">
        <ele>448</ele>
        <time>2017-04-11T16:52:10Z</time>
      </trkpt>
      <trkpt lat="45.89625" lon="6.13236">
        <ele>448</ele>
        <time>2017-04-11T16:52:20Z</time>
      </trkpt>
      <trkpt lat="45.8965" lon="6.13209">
        <ele>447</ele>
        <time>2017-04-11T16:52:25Z</time>
      </trkpt>
      <trkpt lat="45.89669" lon="6.13191">
        <ele>447</ele>
        <time>2017-04-11T16:52:30Z</time>
      </trkpt>
      <trkpt lat="45.89688" lon="6.1317">
        <ele>447</ele>
        <time>2017-04-11T16:52:35Z</time>
      </trkpt>
      <trkpt lat="45.89744" lon="6.13107">
        <ele>445</ele>
        <time>2017-04-11T16:52:45Z</time>
      </trkpt>
      <trkpt lat="45.89768" lon="6.13068">
        <ele>445</ele>
        <time>2017-04-11T16:52:50Z</time>
      </trkpt>
      <trkpt lat="45.89781" lon="6.1302">
        <ele>444</ele>
        <time>2017-04-11T16:52:55Z</time>
      </trkpt>
      <trkpt lat="45.89792" lon="6.12928">
        <ele>444</ele>
        <time>2017-04-11T16:53:05Z</time>
      </trkpt>
      <trkpt lat="45.89814" lon="6.12906">
        <ele>444</ele>
        <time>2017-04-11T16:53:10Z</time>
      </trkpt>
      <trkpt lat="45.8984" lon="6.12905">
        <ele>444</ele>
        <time>2017-04-11T16:53:15Z</time>
      </trkpt>
      <trkpt lat="45.8989" lon="6.12905">
        <ele>443</ele>
        <time>2017-04-11T16:53:25Z</time>
      </trkpt>
      <trkpt lat="45.8991" lon="6.12883">
        <ele>443</ele>
        <time>2017-04-11T16:53:30Z</time>
      </trkpt>
      <trkpt lat="45.89931" lon="6.12859">
        <ele>443</ele>
        <time>2017-04-11T16:53:35Z</time>
      </trkpt>
      <trkpt lat="45.89966" lon="6.12842">
        <ele>443</ele>
        <time>2017-04-11T16:53:40Z</time>
      </trkpt>
      <trkpt lat="45.90081" lon="6.12767">
        <ele>445</ele>
        <time>2017-04-11T16:53:55Z</time>
      </trkpt>
      <trkpt lat="45.9011" lon="6.12787">
        <ele>445</ele>
        <time>2017-04-11T16:54:00Z</time>
      </trkpt>
      <trkpt lat="45.90147" lon="6.12899">
        <ele>446</ele>
        <time>2017-04-11T16:54:10Z</time>
      </trkpt>
      <trkpt lat="45.90169" lon="6.12953">
        <ele>446</ele>
        <time>2017-04-11T16:54:15Z</time>
      </trkpt>
      <trkpt lat="45.90199" lon="6.13052">
        <ele>446</ele>
        <time>2017-04-11T16:54:30Z</time>
      </trkpt>
      <trkpt lat="45.90204" lon="6.13065">
        <ele>446</ele>
        <time>2017-04-11T16:54:40Z</time>
      </trkpt>
      <trkpt lat="45.90212" lon="6.13094">
        <ele>446</ele>
        <time>2017-04-11T16:54:45Z</time>
      </trkpt>
      <trkpt lat="45.90227" lon="6.13121">
        <ele>446</ele>
        <time>2017-04-11T16:54:50Z</time>
      </trkpt>
      <trkpt lat="45.90253" lon="6.13107">
        <ele>446</ele>
        <time>2017-04-11T16:54:55Z</time>
      </trkpt>
      <trkpt lat="45.90281" lon="6.1309">
        <ele>446</ele>
        <time>2017-04-11T16:55:00Z</time>
      </trkpt>
      <trkpt lat="45.90337" lon="6.13066">
        <ele>446</ele>
        <time>2017-04-11T16:55:10Z</time>
      </trkpt>
      <trkpt lat="45.90397" lon="6.13094">
        <ele>447</ele>
        <time>2017-04-11T16:55:20Z</time>
      </trkpt>
      <trkpt lat="45.90431" lon="6.13116">
        <ele>447</ele>
        <time>2017-04-11T16:55:25Z</time>
      </trkpt>
      <trkpt lat="45.90461" lon="6.13147">
        <ele>447</ele>
        <time>2017-04-11T16:55:30Z</time>
      </trkpt>
      <trkpt lat="45.90488" lon="6.13179">
        <ele>448</ele>
        <time>2017-04-11T16:55:35Z</time>
      </trkpt>
      <trkpt lat="45.90511" lon="6.13208">
        <ele>448</ele>
        <time>2017-04-11T16:55:40Z</time>
      </trkpt>
      <trkpt lat="45.90522" lon="6.13228">
        <ele>448</ele>
        <time>2017-04-11T16:55:45Z</time>
      </trkpt>
      <trkpt lat="45.90532" lon="6.13252">
        <ele>447</ele>
        <time>2017-04-11T16:55:50Z</time>
      </trkpt>
      <trkpt lat="45.90554" lon="6.13269">
        <ele>448</ele>
        <time>2017-04-11T16:55:55Z</time>
      </trkpt>
      <trkpt lat="45.906" lon="6.13334">
        <ele>448</ele>
        <time>2017-04-11T16:56:05Z</time>
      </trkpt>
      <trkpt lat="45.90648" lon="6.13406">
        <ele>449</ele>
        <time>2017-04-11T16:56:15Z</time>
      </trkpt>
      <trkpt lat="45.90716" lon="6.13492">
        <ele>449</ele>
        <time>2017-04-11T16:56:30Z</time>
      </trkpt>
      <trkpt lat="45.90784" lon="6.13588">
        <ele>449</ele>
        <time>2017-04-11T16:56:45Z</time>
      </trkpt>
      <trkpt lat="45.90809" lon="6.13598">
        <ele>450</ele>
        <time>2017-04-11T16:56:50Z</time>
      </trkpt>
      <trkpt lat="45.90865" lon="6.13582">
        <ele>450</ele>
        <time>2017-04-11T16:57:00Z</time>
      </trkpt>
      <trkpt lat="45.9095" lon="6.13633">
        <ele>452</ele>
        <time>2017-04-11T16:57:15Z</time>
      </trkpt>
      <trkpt lat="45.90982" lon="6.13661">
        <ele>452</ele>
        <time>2017-04-11T16:57:20Z</time>
      </trkpt>
      <trkpt lat="45.9101" lon="6.13663">
        <ele>452</ele>
        <time>2017-04-11T16:57:25Z</time>
      </trkpt>
      <trkpt lat="45.91034" lon="6.13663">
        <ele>453</ele>
        <time>2017-04-11T16:57:30Z</time>
      </trkpt>
      <trkpt lat="45.91054" lon="6.13665">
        <ele>453</ele>
        <time>2017-04-11T16:57:35Z</time>
      </trkpt>
      <trkpt lat="45.91076" lon="6.13668">
        <ele>453</ele>
        <time>2017-04-11T16:57:50Z</time>
      </trkpt>
      <trkpt lat="45.91079" lon="6.13666">
        <ele>453</ele>
        <time>2017-04-11T16:58:00Z</time>
      </trkpt>
      <trkpt lat="45.91089" lon="6.13667">
        <ele>453</ele>
        <time>2017-04-11T16:58:05Z</time>
      </trkpt>
      <trkpt lat="45.91111" lon="6.13672">
        <ele>453</ele>
        <time>2017-04-11T16:58:10Z</time>
      </trkpt>
      <trkpt lat="45.91132" lon="6.13678">
        <ele>453</ele>
        <time>2017-04-11T16:58:15Z</time>
      </trkpt>
      <trkpt lat="45.91154" lon="6.13667">
        <ele>454</ele>
        <time>2017-04-11T16:58:20Z</time>
      </trkpt>
      <trkpt lat="45.91178" lon="6.13645">
        <ele>454</ele>
        <time>2017-04-11T16:58:25Z</time>
      </trkpt>
      <trkpt lat="45.91224" lon="6.136">
        <ele>455</ele>
        <time>2017-04-11T16:58:35Z</time>
      </trkpt>
      <trkpt lat="45.91247" lon="6.13577">
        <ele>455</ele>
        <time>2017-04-11T16:58:40Z</time>
      </trkpt>
      <trkpt lat="45.91269" lon="6.13554">
        <ele>456</ele>
        <time>2017-04-11T16:58:45Z</time>
      </trkpt>
      <trkpt lat="45.91316" lon="6.13506">
        <ele>457</ele>
        <time>2017-04-11T16:58:55Z</time>
      </trkpt>
      <trkpt lat="45.91342" lon="6.13487">
        <ele>457</ele>
        <time>2017-04-11T16:59:00Z</time>
      </trkpt>
      <trkpt lat="45.9137" lon="6.13473">
        <ele>458</ele>
        <time>2017-04-11T16:59:05Z</time>
      </trkpt>
      <trkpt lat="45.91398" lon="6.13458">
        <ele>458</ele>
        <time>2017-04-11T16:59:10Z</time>
      </trkpt>
      <trkpt lat="45.91428" lon="6.13443">
        <ele>458</ele>
        <time>2017-04-11T16:59:15Z</time>
      </trkpt>
      <trkpt lat="45.91455" lon="6.1343">
        <ele>458</ele>
        <time>2017-04-11T16:59:20Z</time>
      </trkpt>
      <trkpt lat="45.91483" lon="6.13417">
        <ele>458</ele>
        <time>2017-04-11T16:59:25Z</time>
      </trkpt>
      <trkpt lat="45.91539" lon="6.13389">
        <ele>458</ele>
        <time>2017-04-11T16:59:35Z</time>
      </trkpt>
      <trkpt lat="45.91564" lon="6.13373">
        <ele>458</ele>
        <time>2017-04-11T16:59:40Z</time>
      </trkpt>
      <trkpt lat="45.91586" lon="6.13356">
        <ele>459</ele>
        <time>2017-04-11T16:59:45Z</time>
      </trkpt>
      <trkpt lat="45.91601" lon="6.13336">
        <ele>459</ele>
        <time>2017-04-11T16:59:50Z</time>
      </trkpt>
      <trkpt lat="45.91596" lon="6.13316">
        <ele>459</ele>
        <time>2017-04-11T16:59:55Z</time>
      </trkpt>
      <trkpt lat="45.91588" lon="6.13295">
        <ele>459</ele>
        <time>2017-04-11T17:00:02Z</time>
      </trkpt>
    </trkseg>
  </trk>
</gpx>